<?xml version="1.0" encoding="utf-8"?>
<gpx xmlns:xsi="http://www.w3.org/2001/XMLSchema-instance" xmlns:xsd="http://www.w3.org/2001/XMLSchema" version="1.1" creator="Shapelink.com" xmlns="http://www.topografix.com/GPX/1/1" xmlns:gpxtpx="http://www.garmin.com/xmlschemas/TrackPointExtension/v1">
  <metadata>
    <name>Gåing 1.20 km, 2014-06-23</name>
    <desc></desc>
    <author><name>Mikael Blom</name></author> 
    <time>2014-06-23T11:55:39Z</time>
  </metadata>
  <trk>
    <name>Gåing 1.20 km, 2014-06-23</name>
    <trkseg>
      <trkpt lat="59.9749296" lon="17.7272573">
        <ele>22.2476</ele>
        <time>2014-06-23T11:55:39Z</time>
      </trkpt>
      <trkpt lat="59.9749168" lon="17.7272788">
        <ele>22.7283</ele>
        <time>2014-06-23T11:55:40Z</time>
      </trkpt>
      <trkpt lat="59.9749023" lon="17.7273032">
        <ele>22.2476</ele>
        <time>2014-06-23T11:55:41Z</time>
      </trkpt>
      <trkpt lat="59.9748843" lon="17.727335">
        <ele>20.8057</ele>
        <time>2014-06-23T11:55:42Z</time>
      </trkpt>
      <trkpt lat="59.9748707" lon="17.7273554">
        <ele>21.2864</ele>
        <time>2014-06-23T11:55:43Z</time>
      </trkpt>
      <trkpt lat="59.9748597" lon="17.7273676">
        <ele>21.2864</ele>
        <time>2014-06-23T11:55:44Z</time>
      </trkpt>
      <trkpt lat="59.9748441" lon="17.7273837">
        <ele>21.2864</ele>
        <time>2014-06-23T11:55:45Z</time>
      </trkpt>
      <trkpt lat="59.974826" lon="17.7273998">
        <ele>20.325</ele>
        <time>2014-06-23T11:55:46Z</time>
      </trkpt>
      <trkpt lat="59.9748167" lon="17.7274054">
        <ele>20.8057</ele>
        <time>2014-06-23T11:55:47Z</time>
      </trkpt>
      <trkpt lat="59.9748043" lon="17.7274153">
        <ele>20.8057</ele>
        <time>2014-06-23T11:55:48Z</time>
      </trkpt>
      <trkpt lat="59.9747921" lon="17.7274278">
        <ele>20.8057</ele>
        <time>2014-06-23T11:55:49Z</time>
      </trkpt>
      <trkpt lat="59.97478" lon="17.7274447">
        <ele>20.8057</ele>
        <time>2014-06-23T11:55:50Z</time>
      </trkpt>
      <trkpt lat="59.9747722" lon="17.7274554">
        <ele>20.325</ele>
        <time>2014-06-23T11:55:51Z</time>
      </trkpt>
      <trkpt lat="59.9747635" lon="17.7274653">
        <ele>20.325</ele>
        <time>2014-06-23T11:55:52Z</time>
      </trkpt>
      <trkpt lat="59.9747526" lon="17.7274736">
        <ele>20.325</ele>
        <time>2014-06-23T11:55:53Z</time>
      </trkpt>
      <trkpt lat="59.9747401" lon="17.7274846">
        <ele>20.325</ele>
        <time>2014-06-23T11:55:54Z</time>
      </trkpt>
      <trkpt lat="59.9747272" lon="17.7274965">
        <ele>20.8057</ele>
        <time>2014-06-23T11:55:55Z</time>
      </trkpt>
      <trkpt lat="59.9747167" lon="17.7275065">
        <ele>21.2864</ele>
        <time>2014-06-23T11:55:56Z</time>
      </trkpt>
      <trkpt lat="59.9747055" lon="17.7275181">
        <ele>20.8057</ele>
        <time>2014-06-23T11:55:57Z</time>
      </trkpt>
      <trkpt lat="59.9746962" lon="17.727528">
        <ele>21.2864</ele>
        <time>2014-06-23T11:55:58Z</time>
      </trkpt>
      <trkpt lat="59.9746863" lon="17.7275416">
        <ele>20.8057</ele>
        <time>2014-06-23T11:55:59Z</time>
      </trkpt>
      <trkpt lat="59.9746695" lon="17.7275546">
        <ele>19.3638</ele>
        <time>2014-06-23T11:56:00Z</time>
      </trkpt>
      <trkpt lat="59.9746528" lon="17.7275654">
        <ele>18.4023</ele>
        <time>2014-06-23T11:56:01Z</time>
      </trkpt>
      <trkpt lat="59.9746355" lon="17.72758">
        <ele>17.9218</ele>
        <time>2014-06-23T11:56:02Z</time>
      </trkpt>
      <trkpt lat="59.9746221" lon="17.7275944">
        <ele>17.9218</ele>
        <time>2014-06-23T11:56:03Z</time>
      </trkpt>
      <trkpt lat="59.9746132" lon="17.7276033">
        <ele>17.9218</ele>
        <time>2014-06-23T11:56:04Z</time>
      </trkpt>
      <trkpt lat="59.9746012" lon="17.7276161">
        <ele>17.4412</ele>
        <time>2014-06-23T11:56:05Z</time>
      </trkpt>
      <trkpt lat="59.9745883" lon="17.7276279">
        <ele>16.9604</ele>
        <time>2014-06-23T11:56:06Z</time>
      </trkpt>
      <trkpt lat="59.9745775" lon="17.7276384">
        <ele>17.9218</ele>
        <time>2014-06-23T11:56:07Z</time>
      </trkpt>
      <trkpt lat="59.9745667" lon="17.7276482">
        <ele>17.9218</ele>
        <time>2014-06-23T11:56:08Z</time>
      </trkpt>
      <trkpt lat="59.9745573" lon="17.7276593">
        <ele>17.9218</ele>
        <time>2014-06-23T11:56:09Z</time>
      </trkpt>
      <trkpt lat="59.9745457" lon="17.7276742">
        <ele>18.4023</ele>
        <time>2014-06-23T11:56:10Z</time>
      </trkpt>
      <trkpt lat="59.9745366" lon="17.7276903">
        <ele>18.8831</ele>
        <time>2014-06-23T11:56:11Z</time>
      </trkpt>
      <trkpt lat="59.9745268" lon="17.7277047">
        <ele>19.3638</ele>
        <time>2014-06-23T11:56:12Z</time>
      </trkpt>
      <trkpt lat="59.9745143" lon="17.7277158">
        <ele>20.325</ele>
        <time>2014-06-23T11:56:13Z</time>
      </trkpt>
      <trkpt lat="59.9745074" lon="17.7277198">
        <ele>20.325</ele>
        <time>2014-06-23T11:56:14Z</time>
      </trkpt>
      <trkpt lat="59.9745007" lon="17.7277322">
        <ele>19.8444</ele>
        <time>2014-06-23T11:56:15Z</time>
      </trkpt>
      <trkpt lat="59.9744945" lon="17.7277487">
        <ele>19.8444</ele>
        <time>2014-06-23T11:56:16Z</time>
      </trkpt>
      <trkpt lat="59.9744885" lon="17.7277736">
        <ele>20.325</ele>
        <time>2014-06-23T11:56:17Z</time>
      </trkpt>
      <trkpt lat="59.9744831" lon="17.7278033">
        <ele>20.325</ele>
        <time>2014-06-23T11:56:18Z</time>
      </trkpt>
      <trkpt lat="59.9744772" lon="17.727833">
        <ele>21.2864</ele>
        <time>2014-06-23T11:56:19Z</time>
      </trkpt>
      <trkpt lat="59.9744719" lon="17.7278608">
        <ele>21.2864</ele>
        <time>2014-06-23T11:56:20Z</time>
      </trkpt>
      <trkpt lat="59.9744675" lon="17.7278881">
        <ele>22.2476</ele>
        <time>2014-06-23T11:56:21Z</time>
      </trkpt>
      <trkpt lat="59.9744595" lon="17.727923">
        <ele>22.2476</ele>
        <time>2014-06-23T11:56:22Z</time>
      </trkpt>
      <trkpt lat="59.9744527" lon="17.7279607">
        <ele>22.2476</ele>
        <time>2014-06-23T11:56:23Z</time>
      </trkpt>
      <trkpt lat="59.9744491" lon="17.7279954">
        <ele>21.767</ele>
        <time>2014-06-23T11:56:24Z</time>
      </trkpt>
      <trkpt lat="59.9744473" lon="17.7280222">
        <ele>22.7283</ele>
        <time>2014-06-23T11:56:25Z</time>
      </trkpt>
      <trkpt lat="59.9744461" lon="17.7280525">
        <ele>23.209</ele>
        <time>2014-06-23T11:56:26Z</time>
      </trkpt>
      <trkpt lat="59.9744439" lon="17.7280898">
        <ele>22.7283</ele>
        <time>2014-06-23T11:56:27Z</time>
      </trkpt>
      <trkpt lat="59.9744479" lon="17.7281223">
        <ele>22.7283</ele>
        <time>2014-06-23T11:56:28Z</time>
      </trkpt>
      <trkpt lat="59.9744499" lon="17.7281523">
        <ele>23.209</ele>
        <time>2014-06-23T11:56:29Z</time>
      </trkpt>
      <trkpt lat="59.9744501" lon="17.7281819">
        <ele>22.7283</ele>
        <time>2014-06-23T11:56:30Z</time>
      </trkpt>
      <trkpt lat="59.9744515" lon="17.7282104">
        <ele>23.209</ele>
        <time>2014-06-23T11:56:31Z</time>
      </trkpt>
      <trkpt lat="59.9744496" lon="17.7282418">
        <ele>23.209</ele>
        <time>2014-06-23T11:56:32Z</time>
      </trkpt>
      <trkpt lat="59.9744432" lon="17.7282813">
        <ele>23.209</ele>
        <time>2014-06-23T11:56:33Z</time>
      </trkpt>
      <trkpt lat="59.9744393" lon="17.7283193">
        <ele>24.1703</ele>
        <time>2014-06-23T11:56:34Z</time>
      </trkpt>
      <trkpt lat="59.974438" lon="17.7283527">
        <ele>23.6896</ele>
        <time>2014-06-23T11:56:35Z</time>
      </trkpt>
      <trkpt lat="59.9744411" lon="17.7283818">
        <ele>23.6896</ele>
        <time>2014-06-23T11:56:36Z</time>
      </trkpt>
      <trkpt lat="59.9744421" lon="17.7284108">
        <ele>24.1703</ele>
        <time>2014-06-23T11:56:37Z</time>
      </trkpt>
      <trkpt lat="59.9744399" lon="17.728443">
        <ele>24.651</ele>
        <time>2014-06-23T11:56:38Z</time>
      </trkpt>
      <trkpt lat="59.9744377" lon="17.7284755">
        <ele>25.1317</ele>
        <time>2014-06-23T11:56:39Z</time>
      </trkpt>
      <trkpt lat="59.9744372" lon="17.7285056">
        <ele>25.1317</ele>
        <time>2014-06-23T11:56:40Z</time>
      </trkpt>
      <trkpt lat="59.9744365" lon="17.7285358">
        <ele>25.6123</ele>
        <time>2014-06-23T11:56:41Z</time>
      </trkpt>
      <trkpt lat="59.9744355" lon="17.7285674">
        <ele>25.6123</ele>
        <time>2014-06-23T11:56:42Z</time>
      </trkpt>
      <trkpt lat="59.9744387" lon="17.7285947">
        <ele>25.6123</ele>
        <time>2014-06-23T11:56:43Z</time>
      </trkpt>
      <trkpt lat="59.9744397" lon="17.7286235">
        <ele>25.6123</ele>
        <time>2014-06-23T11:56:44Z</time>
      </trkpt>
      <trkpt lat="59.9744407" lon="17.7286512">
        <ele>25.6123</ele>
        <time>2014-06-23T11:56:45Z</time>
      </trkpt>
      <trkpt lat="59.9744429" lon="17.7286791">
        <ele>25.6123</ele>
        <time>2014-06-23T11:56:46Z</time>
      </trkpt>
      <trkpt lat="59.9744439" lon="17.7287111">
        <ele>26.0929</ele>
        <time>2014-06-23T11:56:47Z</time>
      </trkpt>
      <trkpt lat="59.9744453" lon="17.7287408">
        <ele>26.0929</ele>
        <time>2014-06-23T11:56:48Z</time>
      </trkpt>
      <trkpt lat="59.9744481" lon="17.7287686">
        <ele>26.0929</ele>
        <time>2014-06-23T11:56:49Z</time>
      </trkpt>
      <trkpt lat="59.9744494" lon="17.7287968">
        <ele>26.5736</ele>
        <time>2014-06-23T11:56:50Z</time>
      </trkpt>
      <trkpt lat="59.9744495" lon="17.7288263">
        <ele>27.0543</ele>
        <time>2014-06-23T11:56:51Z</time>
      </trkpt>
      <trkpt lat="59.9744497" lon="17.7288564">
        <ele>27.0543</ele>
        <time>2014-06-23T11:56:52Z</time>
      </trkpt>
      <trkpt lat="59.9744511" lon="17.7288873">
        <ele>27.5349</ele>
        <time>2014-06-23T11:56:53Z</time>
      </trkpt>
      <trkpt lat="59.9744509" lon="17.7289186">
        <ele>28.4962</ele>
        <time>2014-06-23T11:56:54Z</time>
      </trkpt>
      <trkpt lat="59.9744527" lon="17.7289488">
        <ele>28.4962</ele>
        <time>2014-06-23T11:56:55Z</time>
      </trkpt>
      <trkpt lat="59.9744568" lon="17.7289775">
        <ele>28.9769</ele>
        <time>2014-06-23T11:56:56Z</time>
      </trkpt>
      <trkpt lat="59.9744579" lon="17.7290034">
        <ele>28.9769</ele>
        <time>2014-06-23T11:56:57Z</time>
      </trkpt>
      <trkpt lat="59.9744595" lon="17.7290231">
        <ele>29.4575</ele>
        <time>2014-06-23T11:56:58Z</time>
      </trkpt>
      <trkpt lat="59.9744594" lon="17.729048">
        <ele>29.9381</ele>
        <time>2014-06-23T11:56:59Z</time>
      </trkpt>
      <trkpt lat="59.9744613" lon="17.7290739">
        <ele>30.4188</ele>
        <time>2014-06-23T11:57:00Z</time>
      </trkpt>
      <trkpt lat="59.9744651" lon="17.7291014">
        <ele>30.4188</ele>
        <time>2014-06-23T11:57:01Z</time>
      </trkpt>
      <trkpt lat="59.9744675" lon="17.7291315">
        <ele>31.3801</ele>
        <time>2014-06-23T11:57:02Z</time>
      </trkpt>
      <trkpt lat="59.9744665" lon="17.7291634">
        <ele>31.3801</ele>
        <time>2014-06-23T11:57:03Z</time>
      </trkpt>
      <trkpt lat="59.9744677" lon="17.7291928">
        <ele>31.8607</ele>
        <time>2014-06-23T11:57:04Z</time>
      </trkpt>
      <trkpt lat="59.9744677" lon="17.7292231">
        <ele>31.8607</ele>
        <time>2014-06-23T11:57:05Z</time>
      </trkpt>
      <trkpt lat="59.9744693" lon="17.7292542">
        <ele>31.3801</ele>
        <time>2014-06-23T11:57:06Z</time>
      </trkpt>
      <trkpt lat="59.974474" lon="17.7292819">
        <ele>31.3801</ele>
        <time>2014-06-23T11:57:07Z</time>
      </trkpt>
      <trkpt lat="59.9744764" lon="17.7293109">
        <ele>31.8607</ele>
        <time>2014-06-23T11:57:08Z</time>
      </trkpt>
      <trkpt lat="59.974476" lon="17.7293412">
        <ele>32.3416</ele>
        <time>2014-06-23T11:57:09Z</time>
      </trkpt>
      <trkpt lat="59.9744743" lon="17.72937">
        <ele>31.8607</ele>
        <time>2014-06-23T11:57:10Z</time>
      </trkpt>
      <trkpt lat="59.9744766" lon="17.7293967">
        <ele>31.8607</ele>
        <time>2014-06-23T11:57:11Z</time>
      </trkpt>
      <trkpt lat="59.97448" lon="17.7294249">
        <ele>31.3801</ele>
        <time>2014-06-23T11:57:12Z</time>
      </trkpt>
      <trkpt lat="59.9744829" lon="17.72945">
        <ele>31.3801</ele>
        <time>2014-06-23T11:57:13Z</time>
      </trkpt>
      <trkpt lat="59.9744823" lon="17.7294751">
        <ele>31.8607</ele>
        <time>2014-06-23T11:57:14Z</time>
      </trkpt>
      <trkpt lat="59.9744831" lon="17.7295">
        <ele>31.8607</ele>
        <time>2014-06-23T11:57:15Z</time>
      </trkpt>
      <trkpt lat="59.9744816" lon="17.7295301">
        <ele>32.3416</ele>
        <time>2014-06-23T11:57:16Z</time>
      </trkpt>
      <trkpt lat="59.9744802" lon="17.7295598">
        <ele>32.3416</ele>
        <time>2014-06-23T11:57:17Z</time>
      </trkpt>
      <trkpt lat="59.9744769" lon="17.7295892">
        <ele>32.3416</ele>
        <time>2014-06-23T11:57:18Z</time>
      </trkpt>
      <trkpt lat="59.9744753" lon="17.7296205">
        <ele>32.8223</ele>
        <time>2014-06-23T11:57:19Z</time>
      </trkpt>
      <trkpt lat="59.9744734" lon="17.7296502">
        <ele>32.3416</ele>
        <time>2014-06-23T11:57:20Z</time>
      </trkpt>
      <trkpt lat="59.9744728" lon="17.7296788">
        <ele>32.3416</ele>
        <time>2014-06-23T11:57:21Z</time>
      </trkpt>
      <trkpt lat="59.9744713" lon="17.7297079">
        <ele>32.3416</ele>
        <time>2014-06-23T11:57:22Z</time>
      </trkpt>
      <trkpt lat="59.9744682" lon="17.7297374">
        <ele>32.3416</ele>
        <time>2014-06-23T11:57:23Z</time>
      </trkpt>
      <trkpt lat="59.9744663" lon="17.7297661">
        <ele>32.3416</ele>
        <time>2014-06-23T11:57:24Z</time>
      </trkpt>
      <trkpt lat="59.9744645" lon="17.7297966">
        <ele>32.3416</ele>
        <time>2014-06-23T11:57:25Z</time>
      </trkpt>
      <trkpt lat="59.9744631" lon="17.7298276">
        <ele>32.3416</ele>
        <time>2014-06-23T11:57:26Z</time>
      </trkpt>
      <trkpt lat="59.9744604" lon="17.7298564">
        <ele>32.3416</ele>
        <time>2014-06-23T11:57:27Z</time>
      </trkpt>
      <trkpt lat="59.9744562" lon="17.7298872">
        <ele>32.3416</ele>
        <time>2014-06-23T11:57:28Z</time>
      </trkpt>
      <trkpt lat="59.974454" lon="17.7299171">
        <ele>32.3416</ele>
        <time>2014-06-23T11:57:29Z</time>
      </trkpt>
      <trkpt lat="59.9744532" lon="17.7299447">
        <ele>32.3416</ele>
        <time>2014-06-23T11:57:30Z</time>
      </trkpt>
      <trkpt lat="59.9744518" lon="17.7299717">
        <ele>31.8607</ele>
        <time>2014-06-23T11:57:31Z</time>
      </trkpt>
      <trkpt lat="59.9744504" lon="17.7299986">
        <ele>31.3801</ele>
        <time>2014-06-23T11:57:32Z</time>
      </trkpt>
      <trkpt lat="59.9744501" lon="17.7300259">
        <ele>31.3801</ele>
        <time>2014-06-23T11:57:33Z</time>
      </trkpt>
      <trkpt lat="59.9744466" lon="17.7300587">
        <ele>31.8607</ele>
        <time>2014-06-23T11:57:34Z</time>
      </trkpt>
      <trkpt lat="59.9744439" lon="17.7300906">
        <ele>31.8607</ele>
        <time>2014-06-23T11:57:35Z</time>
      </trkpt>
      <trkpt lat="59.9744406" lon="17.7301213">
        <ele>32.3416</ele>
        <time>2014-06-23T11:57:36Z</time>
      </trkpt>
      <trkpt lat="59.9744383" lon="17.7301508">
        <ele>32.8223</ele>
        <time>2014-06-23T11:57:37Z</time>
      </trkpt>
      <trkpt lat="59.9744376" lon="17.7301766">
        <ele>32.8223</ele>
        <time>2014-06-23T11:57:38Z</time>
      </trkpt>
      <trkpt lat="59.9744361" lon="17.7302022">
        <ele>32.3416</ele>
        <time>2014-06-23T11:57:39Z</time>
      </trkpt>
      <trkpt lat="59.974432" lon="17.7302317">
        <ele>32.3416</ele>
        <time>2014-06-23T11:57:40Z</time>
      </trkpt>
      <trkpt lat="59.9744267" lon="17.7302627">
        <ele>32.3416</ele>
        <time>2014-06-23T11:57:41Z</time>
      </trkpt>
      <trkpt lat="59.9744232" lon="17.7302905">
        <ele>32.3416</ele>
        <time>2014-06-23T11:57:42Z</time>
      </trkpt>
      <trkpt lat="59.9744196" lon="17.7303174">
        <ele>31.8607</ele>
        <time>2014-06-23T11:57:43Z</time>
      </trkpt>
      <trkpt lat="59.9744179" lon="17.7303451">
        <ele>31.8607</ele>
        <time>2014-06-23T11:57:44Z</time>
      </trkpt>
      <trkpt lat="59.9744159" lon="17.7303791">
        <ele>31.8607</ele>
        <time>2014-06-23T11:57:45Z</time>
      </trkpt>
      <trkpt lat="59.9744119" lon="17.7304133">
        <ele>32.3416</ele>
        <time>2014-06-23T11:57:46Z</time>
      </trkpt>
      <trkpt lat="59.9744086" lon="17.730444">
        <ele>32.3416</ele>
        <time>2014-06-23T11:57:47Z</time>
      </trkpt>
      <trkpt lat="59.9744056" lon="17.7304787">
        <ele>31.8607</ele>
        <time>2014-06-23T11:57:48Z</time>
      </trkpt>
      <trkpt lat="59.9744024" lon="17.7305123">
        <ele>31.3801</ele>
        <time>2014-06-23T11:57:49Z</time>
      </trkpt>
      <trkpt lat="59.9744007" lon="17.7305429">
        <ele>31.3801</ele>
        <time>2014-06-23T11:57:50Z</time>
      </trkpt>
      <trkpt lat="59.9743968" lon="17.7305736">
        <ele>30.8995</ele>
        <time>2014-06-23T11:57:51Z</time>
      </trkpt>
      <trkpt lat="59.974395" lon="17.7306047">
        <ele>30.8995</ele>
        <time>2014-06-23T11:57:52Z</time>
      </trkpt>
      <trkpt lat="59.9743909" lon="17.7306378">
        <ele>30.8995</ele>
        <time>2014-06-23T11:57:53Z</time>
      </trkpt>
      <trkpt lat="59.9743855" lon="17.7306698">
        <ele>30.8995</ele>
        <time>2014-06-23T11:57:54Z</time>
      </trkpt>
      <trkpt lat="59.9743782" lon="17.7307007">
        <ele>30.8995</ele>
        <time>2014-06-23T11:57:55Z</time>
      </trkpt>
      <trkpt lat="59.9743719" lon="17.730732">
        <ele>30.8995</ele>
        <time>2014-06-23T11:57:56Z</time>
      </trkpt>
      <trkpt lat="59.9743679" lon="17.7307632">
        <ele>30.8995</ele>
        <time>2014-06-23T11:57:57Z</time>
      </trkpt>
      <trkpt lat="59.974367" lon="17.7307963">
        <ele>31.3801</ele>
        <time>2014-06-23T11:57:58Z</time>
      </trkpt>
      <trkpt lat="59.9743667" lon="17.7308285">
        <ele>31.3801</ele>
        <time>2014-06-23T11:57:59Z</time>
      </trkpt>
      <trkpt lat="59.9743657" lon="17.7308574">
        <ele>31.3801</ele>
        <time>2014-06-23T11:58:00Z</time>
      </trkpt>
      <trkpt lat="59.9743632" lon="17.7308834">
        <ele>31.8607</ele>
        <time>2014-06-23T11:58:01Z</time>
      </trkpt>
      <trkpt lat="59.974361" lon="17.7309092">
        <ele>31.8607</ele>
        <time>2014-06-23T11:58:02Z</time>
      </trkpt>
      <trkpt lat="59.974361" lon="17.730935">
        <ele>32.3416</ele>
        <time>2014-06-23T11:58:03Z</time>
      </trkpt>
      <trkpt lat="59.974361" lon="17.7309626">
        <ele>32.3416</ele>
        <time>2014-06-23T11:58:04Z</time>
      </trkpt>
      <trkpt lat="59.9743605" lon="17.7309867">
        <ele>32.8223</ele>
        <time>2014-06-23T11:58:05Z</time>
      </trkpt>
      <trkpt lat="59.9743594" lon="17.7310118">
        <ele>32.8223</ele>
        <time>2014-06-23T11:58:06Z</time>
      </trkpt>
      <trkpt lat="59.974358" lon="17.7310403">
        <ele>33.3029</ele>
        <time>2014-06-23T11:58:07Z</time>
      </trkpt>
      <trkpt lat="59.9743559" lon="17.7310704">
        <ele>33.3029</ele>
        <time>2014-06-23T11:58:08Z</time>
      </trkpt>
      <trkpt lat="59.9743536" lon="17.7311009">
        <ele>33.7834</ele>
        <time>2014-06-23T11:58:09Z</time>
      </trkpt>
      <trkpt lat="59.9743492" lon="17.7311318">
        <ele>34.7449</ele>
        <time>2014-06-23T11:58:10Z</time>
      </trkpt>
      <trkpt lat="59.9743455" lon="17.7311631">
        <ele>34.2642</ele>
        <time>2014-06-23T11:58:11Z</time>
      </trkpt>
      <trkpt lat="59.974346" lon="17.7311914">
        <ele>34.2642</ele>
        <time>2014-06-23T11:58:12Z</time>
      </trkpt>
      <trkpt lat="59.9743466" lon="17.7312198">
        <ele>34.7449</ele>
        <time>2014-06-23T11:58:13Z</time>
      </trkpt>
      <trkpt lat="59.974346" lon="17.731249">
        <ele>34.7449</ele>
        <time>2014-06-23T11:58:14Z</time>
      </trkpt>
      <trkpt lat="59.974345" lon="17.7312758">
        <ele>34.7449</ele>
        <time>2014-06-23T11:58:15Z</time>
      </trkpt>
      <trkpt lat="59.9743442" lon="17.7313017">
        <ele>35.2255</ele>
        <time>2014-06-23T11:58:16Z</time>
      </trkpt>
      <trkpt lat="59.9743437" lon="17.7313278">
        <ele>34.7449</ele>
        <time>2014-06-23T11:58:17Z</time>
      </trkpt>
      <trkpt lat="59.9743451" lon="17.7313535">
        <ele>34.7449</ele>
        <time>2014-06-23T11:58:18Z</time>
      </trkpt>
      <trkpt lat="59.9743481" lon="17.7313778">
        <ele>34.7449</ele>
        <time>2014-06-23T11:58:19Z</time>
      </trkpt>
      <trkpt lat="59.974351" lon="17.7314011">
        <ele>34.7449</ele>
        <time>2014-06-23T11:58:20Z</time>
      </trkpt>
      <trkpt lat="59.9743518" lon="17.7314251">
        <ele>34.2642</ele>
        <time>2014-06-23T11:58:21Z</time>
      </trkpt>
      <trkpt lat="59.9743511" lon="17.7314515">
        <ele>34.2642</ele>
        <time>2014-06-23T11:58:22Z</time>
      </trkpt>
      <trkpt lat="59.97435" lon="17.7314778">
        <ele>34.2642</ele>
        <time>2014-06-23T11:58:23Z</time>
      </trkpt>
      <trkpt lat="59.974349" lon="17.7315043">
        <ele>34.7449</ele>
        <time>2014-06-23T11:58:24Z</time>
      </trkpt>
      <trkpt lat="59.9743481" lon="17.7315302">
        <ele>34.7449</ele>
        <time>2014-06-23T11:58:25Z</time>
      </trkpt>
      <trkpt lat="59.9743459" lon="17.7315566">
        <ele>34.2642</ele>
        <time>2014-06-23T11:58:26Z</time>
      </trkpt>
      <trkpt lat="59.9743409" lon="17.7315878">
        <ele>34.2642</ele>
        <time>2014-06-23T11:58:27Z</time>
      </trkpt>
      <trkpt lat="59.974336" lon="17.7316079">
        <ele>34.7449</ele>
        <time>2014-06-23T11:58:28Z</time>
      </trkpt>
      <trkpt lat="59.974336" lon="17.7315965">
        <ele>33.7834</ele>
        <time>2014-06-23T11:58:29Z</time>
      </trkpt>
      <trkpt lat="59.9743375" lon="17.7315601">
        <ele>33.7834</ele>
        <time>2014-06-23T11:58:30Z</time>
      </trkpt>
      <trkpt lat="59.9743373" lon="17.7315262">
        <ele>33.7834</ele>
        <time>2014-06-23T11:58:31Z</time>
      </trkpt>
      <trkpt lat="59.9743382" lon="17.7314957">
        <ele>33.7834</ele>
        <time>2014-06-23T11:58:32Z</time>
      </trkpt>
      <trkpt lat="59.9743397" lon="17.7314635">
        <ele>33.3029</ele>
        <time>2014-06-23T11:58:33Z</time>
      </trkpt>
      <trkpt lat="59.9743408" lon="17.7314339">
        <ele>33.3029</ele>
        <time>2014-06-23T11:58:34Z</time>
      </trkpt>
      <trkpt lat="59.9743418" lon="17.7314038">
        <ele>32.8223</ele>
        <time>2014-06-23T11:58:35Z</time>
      </trkpt>
      <trkpt lat="59.9743424" lon="17.7313737">
        <ele>32.3416</ele>
        <time>2014-06-23T11:58:36Z</time>
      </trkpt>
      <trkpt lat="59.9743429" lon="17.7313433">
        <ele>31.8607</ele>
        <time>2014-06-23T11:58:37Z</time>
      </trkpt>
      <trkpt lat="59.9743439" lon="17.7313116">
        <ele>31.8607</ele>
        <time>2014-06-23T11:58:38Z</time>
      </trkpt>
      <trkpt lat="59.9743454" lon="17.7312807">
        <ele>31.3801</ele>
        <time>2014-06-23T11:58:39Z</time>
      </trkpt>
      <trkpt lat="59.9743468" lon="17.7312526">
        <ele>31.3801</ele>
        <time>2014-06-23T11:58:40Z</time>
      </trkpt>
      <trkpt lat="59.9743494" lon="17.7312243">
        <ele>30.8995</ele>
        <time>2014-06-23T11:58:41Z</time>
      </trkpt>
      <trkpt lat="59.9743521" lon="17.7311982">
        <ele>30.4188</ele>
        <time>2014-06-23T11:58:42Z</time>
      </trkpt>
      <trkpt lat="59.974353" lon="17.7311856">
        <ele>30.4188</ele>
        <time>2014-06-23T11:58:43Z</time>
      </trkpt>
      <trkpt lat="59.9743532" lon="17.7311827">
        <ele>30.4188</ele>
        <time>2014-06-23T11:58:44Z</time>
      </trkpt>
      <trkpt lat="59.9743532" lon="17.7311823">
        <ele>30.4188</ele>
        <time>2014-06-23T11:58:45Z</time>
      </trkpt>
      <trkpt lat="59.9743475" lon="17.7313131">
        <ele>29.9381</ele>
        <time>2014-06-23T11:58:53Z</time>
      </trkpt>
      <trkpt lat="59.9743485" lon="17.7313376">
        <ele>29.4575</ele>
        <time>2014-06-23T11:58:54Z</time>
      </trkpt>
      <trkpt lat="59.974349" lon="17.7313625">
        <ele>29.4575</ele>
        <time>2014-06-23T11:58:55Z</time>
      </trkpt>
      <trkpt lat="59.9743486" lon="17.7313878">
        <ele>29.4575</ele>
        <time>2014-06-23T11:58:56Z</time>
      </trkpt>
      <trkpt lat="59.9743487" lon="17.7314122">
        <ele>28.9769</ele>
        <time>2014-06-23T11:58:57Z</time>
      </trkpt>
      <trkpt lat="59.9743492" lon="17.7314389">
        <ele>28.9769</ele>
        <time>2014-06-23T11:58:58Z</time>
      </trkpt>
      <trkpt lat="59.9743477" lon="17.7314685">
        <ele>28.9769</ele>
        <time>2014-06-23T11:58:59Z</time>
      </trkpt>
      <trkpt lat="59.9743469" lon="17.7314975">
        <ele>28.4962</ele>
        <time>2014-06-23T11:59:00Z</time>
      </trkpt>
      <trkpt lat="59.9743424" lon="17.7315246">
        <ele>28.4962</ele>
        <time>2014-06-23T11:59:01Z</time>
      </trkpt>
      <trkpt lat="59.9743375" lon="17.7315518">
        <ele>28.9769</ele>
        <time>2014-06-23T11:59:02Z</time>
      </trkpt>
      <trkpt lat="59.9743371" lon="17.7315805">
        <ele>29.4575</ele>
        <time>2014-06-23T11:59:03Z</time>
      </trkpt>
      <trkpt lat="59.9743366" lon="17.7316096">
        <ele>29.4575</ele>
        <time>2014-06-23T11:59:04Z</time>
      </trkpt>
      <trkpt lat="59.9743381" lon="17.731638">
        <ele>28.9769</ele>
        <time>2014-06-23T11:59:05Z</time>
      </trkpt>
      <trkpt lat="59.9743398" lon="17.7316661">
        <ele>28.9769</ele>
        <time>2014-06-23T11:59:06Z</time>
      </trkpt>
      <trkpt lat="59.9743407" lon="17.7316941">
        <ele>29.4575</ele>
        <time>2014-06-23T11:59:07Z</time>
      </trkpt>
      <trkpt lat="59.9743375" lon="17.7317221">
        <ele>29.9381</ele>
        <time>2014-06-23T11:59:08Z</time>
      </trkpt>
      <trkpt lat="59.9743367" lon="17.731751">
        <ele>29.9381</ele>
        <time>2014-06-23T11:59:09Z</time>
      </trkpt>
      <trkpt lat="59.9743376" lon="17.7317815">
        <ele>29.9381</ele>
        <time>2014-06-23T11:59:10Z</time>
      </trkpt>
      <trkpt lat="59.9743386" lon="17.7318088">
        <ele>30.4188</ele>
        <time>2014-06-23T11:59:11Z</time>
      </trkpt>
      <trkpt lat="59.9743393" lon="17.7318358">
        <ele>30.4188</ele>
        <time>2014-06-23T11:59:12Z</time>
      </trkpt>
      <trkpt lat="59.9743406" lon="17.7318637">
        <ele>30.8995</ele>
        <time>2014-06-23T11:59:13Z</time>
      </trkpt>
      <trkpt lat="59.9743418" lon="17.7318919">
        <ele>30.8995</ele>
        <time>2014-06-23T11:59:14Z</time>
      </trkpt>
      <trkpt lat="59.9743433" lon="17.7319205">
        <ele>31.3801</ele>
        <time>2014-06-23T11:59:15Z</time>
      </trkpt>
      <trkpt lat="59.9743439" lon="17.7319523">
        <ele>31.3801</ele>
        <time>2014-06-23T11:59:16Z</time>
      </trkpt>
      <trkpt lat="59.974345" lon="17.7319821">
        <ele>31.8607</ele>
        <time>2014-06-23T11:59:17Z</time>
      </trkpt>
      <trkpt lat="59.9743448" lon="17.7320083">
        <ele>32.3416</ele>
        <time>2014-06-23T11:59:18Z</time>
      </trkpt>
      <trkpt lat="59.974344" lon="17.732038">
        <ele>32.3416</ele>
        <time>2014-06-23T11:59:19Z</time>
      </trkpt>
      <trkpt lat="59.9743453" lon="17.7320685">
        <ele>32.8223</ele>
        <time>2014-06-23T11:59:20Z</time>
      </trkpt>
      <trkpt lat="59.9743473" lon="17.7320966">
        <ele>33.3029</ele>
        <time>2014-06-23T11:59:21Z</time>
      </trkpt>
      <trkpt lat="59.9743499" lon="17.7321244">
        <ele>33.7834</ele>
        <time>2014-06-23T11:59:22Z</time>
      </trkpt>
      <trkpt lat="59.9743517" lon="17.732154">
        <ele>34.2642</ele>
        <time>2014-06-23T11:59:23Z</time>
      </trkpt>
      <trkpt lat="59.9743523" lon="17.7321861">
        <ele>34.7449</ele>
        <time>2014-06-23T11:59:24Z</time>
      </trkpt>
      <trkpt lat="59.9743527" lon="17.732216">
        <ele>34.7449</ele>
        <time>2014-06-23T11:59:25Z</time>
      </trkpt>
      <trkpt lat="59.9743559" lon="17.7322416">
        <ele>35.7061</ele>
        <time>2014-06-23T11:59:26Z</time>
      </trkpt>
      <trkpt lat="59.9743589" lon="17.7322679">
        <ele>36.1868</ele>
        <time>2014-06-23T11:59:27Z</time>
      </trkpt>
      <trkpt lat="59.9743592" lon="17.7322959">
        <ele>36.1868</ele>
        <time>2014-06-23T11:59:28Z</time>
      </trkpt>
      <trkpt lat="59.974359" lon="17.7323216">
        <ele>36.6675</ele>
        <time>2014-06-23T11:59:29Z</time>
      </trkpt>
      <trkpt lat="59.9743589" lon="17.7323485">
        <ele>36.1868</ele>
        <time>2014-06-23T11:59:30Z</time>
      </trkpt>
      <trkpt lat="59.9743594" lon="17.7323772">
        <ele>36.1868</ele>
        <time>2014-06-23T11:59:31Z</time>
      </trkpt>
      <trkpt lat="59.9743595" lon="17.7324056">
        <ele>36.1868</ele>
        <time>2014-06-23T11:59:32Z</time>
      </trkpt>
      <trkpt lat="59.9743619" lon="17.7324328">
        <ele>36.6675</ele>
        <time>2014-06-23T11:59:33Z</time>
      </trkpt>
      <trkpt lat="59.9743637" lon="17.7324611">
        <ele>36.6675</ele>
        <time>2014-06-23T11:59:34Z</time>
      </trkpt>
      <trkpt lat="59.9743649" lon="17.7324901">
        <ele>36.6675</ele>
        <time>2014-06-23T11:59:35Z</time>
      </trkpt>
      <trkpt lat="59.9743652" lon="17.7325197">
        <ele>37.1481</ele>
        <time>2014-06-23T11:59:36Z</time>
      </trkpt>
      <trkpt lat="59.9743642" lon="17.7325519">
        <ele>37.1481</ele>
        <time>2014-06-23T11:59:37Z</time>
      </trkpt>
      <trkpt lat="59.974362" lon="17.7325829">
        <ele>36.6675</ele>
        <time>2014-06-23T11:59:38Z</time>
      </trkpt>
      <trkpt lat="59.97436" lon="17.7326125">
        <ele>36.6675</ele>
        <time>2014-06-23T11:59:39Z</time>
      </trkpt>
      <trkpt lat="59.9743583" lon="17.7326392">
        <ele>36.1868</ele>
        <time>2014-06-23T11:59:40Z</time>
      </trkpt>
      <trkpt lat="59.974358" lon="17.7326635">
        <ele>35.7061</ele>
        <time>2014-06-23T11:59:41Z</time>
      </trkpt>
      <trkpt lat="59.9743572" lon="17.732687">
        <ele>35.2255</ele>
        <time>2014-06-23T11:59:42Z</time>
      </trkpt>
      <trkpt lat="59.9743563" lon="17.7327107">
        <ele>34.7449</ele>
        <time>2014-06-23T11:59:43Z</time>
      </trkpt>
      <trkpt lat="59.9743572" lon="17.7327336">
        <ele>34.2642</ele>
        <time>2014-06-23T11:59:44Z</time>
      </trkpt>
      <trkpt lat="59.9743575" lon="17.7327605">
        <ele>33.7834</ele>
        <time>2014-06-23T11:59:45Z</time>
      </trkpt>
      <trkpt lat="59.9743588" lon="17.73279">
        <ele>33.7834</ele>
        <time>2014-06-23T11:59:46Z</time>
      </trkpt>
      <trkpt lat="59.9743592" lon="17.7328217">
        <ele>33.3029</ele>
        <time>2014-06-23T11:59:47Z</time>
      </trkpt>
      <trkpt lat="59.9743577" lon="17.7328554">
        <ele>33.3029</ele>
        <time>2014-06-23T11:59:48Z</time>
      </trkpt>
      <trkpt lat="59.9743568" lon="17.732887">
        <ele>32.8223</ele>
        <time>2014-06-23T11:59:49Z</time>
      </trkpt>
      <trkpt lat="59.9743567" lon="17.7329173">
        <ele>32.8223</ele>
        <time>2014-06-23T11:59:50Z</time>
      </trkpt>
      <trkpt lat="59.9743554" lon="17.7329479">
        <ele>32.8223</ele>
        <time>2014-06-23T11:59:51Z</time>
      </trkpt>
      <trkpt lat="59.9743548" lon="17.7329792">
        <ele>33.3029</ele>
        <time>2014-06-23T11:59:52Z</time>
      </trkpt>
      <trkpt lat="59.9743552" lon="17.7330108">
        <ele>33.3029</ele>
        <time>2014-06-23T11:59:53Z</time>
      </trkpt>
      <trkpt lat="59.9743556" lon="17.7330402">
        <ele>33.3029</ele>
        <time>2014-06-23T11:59:54Z</time>
      </trkpt>
      <trkpt lat="59.9743554" lon="17.7330689">
        <ele>33.3029</ele>
        <time>2014-06-23T11:59:55Z</time>
      </trkpt>
      <trkpt lat="59.9743563" lon="17.7330974">
        <ele>33.3029</ele>
        <time>2014-06-23T11:59:56Z</time>
      </trkpt>
      <trkpt lat="59.9743553" lon="17.7331298">
        <ele>33.7834</ele>
        <time>2014-06-23T11:59:57Z</time>
      </trkpt>
      <trkpt lat="59.9743548" lon="17.7331616">
        <ele>33.7834</ele>
        <time>2014-06-23T11:59:58Z</time>
      </trkpt>
      <trkpt lat="59.9743558" lon="17.7331901">
        <ele>33.7834</ele>
        <time>2014-06-23T11:59:59Z</time>
      </trkpt>
      <trkpt lat="59.9743567" lon="17.7332169">
        <ele>33.3029</ele>
        <time>2014-06-23T12:00:00Z</time>
      </trkpt>
      <trkpt lat="59.9743573" lon="17.7332448">
        <ele>33.3029</ele>
        <time>2014-06-23T12:00:01Z</time>
      </trkpt>
      <trkpt lat="59.9743575" lon="17.7332732">
        <ele>33.3029</ele>
        <time>2014-06-23T12:00:02Z</time>
      </trkpt>
      <trkpt lat="59.9743563" lon="17.7333014">
        <ele>33.3029</ele>
        <time>2014-06-23T12:00:03Z</time>
      </trkpt>
      <trkpt lat="59.9743547" lon="17.7333299">
        <ele>33.3029</ele>
        <time>2014-06-23T12:00:04Z</time>
      </trkpt>
      <trkpt lat="59.9743528" lon="17.7333594">
        <ele>33.3029</ele>
        <time>2014-06-23T12:00:05Z</time>
      </trkpt>
      <trkpt lat="59.974352" lon="17.7333871">
        <ele>32.8223</ele>
        <time>2014-06-23T12:00:06Z</time>
      </trkpt>
      <trkpt lat="59.9743526" lon="17.7334141">
        <ele>32.3416</ele>
        <time>2014-06-23T12:00:07Z</time>
      </trkpt>
      <trkpt lat="59.974353" lon="17.7334434">
        <ele>32.3416</ele>
        <time>2014-06-23T12:00:08Z</time>
      </trkpt>
      <trkpt lat="59.9743528" lon="17.7334731">
        <ele>32.3416</ele>
        <time>2014-06-23T12:00:09Z</time>
      </trkpt>
      <trkpt lat="59.9743532" lon="17.7335022">
        <ele>32.8223</ele>
        <time>2014-06-23T12:00:10Z</time>
      </trkpt>
      <trkpt lat="59.9743538" lon="17.7335312">
        <ele>32.8223</ele>
        <time>2014-06-23T12:00:11Z</time>
      </trkpt>
      <trkpt lat="59.9743532" lon="17.7335599">
        <ele>32.8223</ele>
        <time>2014-06-23T12:00:12Z</time>
      </trkpt>
      <trkpt lat="59.9743492" lon="17.7335876">
        <ele>32.3416</ele>
        <time>2014-06-23T12:00:13Z</time>
      </trkpt>
      <trkpt lat="59.9743459" lon="17.7336151">
        <ele>32.3416</ele>
        <time>2014-06-23T12:00:14Z</time>
      </trkpt>
      <trkpt lat="59.9743448" lon="17.7336427">
        <ele>32.3416</ele>
        <time>2014-06-23T12:00:15Z</time>
      </trkpt>
      <trkpt lat="59.9743456" lon="17.7336692">
        <ele>32.3416</ele>
        <time>2014-06-23T12:00:16Z</time>
      </trkpt>
      <trkpt lat="59.9743455" lon="17.733697">
        <ele>32.3416</ele>
        <time>2014-06-23T12:00:17Z</time>
      </trkpt>
      <trkpt lat="59.974345" lon="17.7337262">
        <ele>32.3416</ele>
        <time>2014-06-23T12:00:18Z</time>
      </trkpt>
      <trkpt lat="59.9743434" lon="17.7337565">
        <ele>32.3416</ele>
        <time>2014-06-23T12:00:19Z</time>
      </trkpt>
      <trkpt lat="59.9743407" lon="17.7337866">
        <ele>31.8607</ele>
        <time>2014-06-23T12:00:20Z</time>
      </trkpt>
      <trkpt lat="59.9743386" lon="17.7338171">
        <ele>31.8607</ele>
        <time>2014-06-23T12:00:21Z</time>
      </trkpt>
      <trkpt lat="59.9743382" lon="17.7338477">
        <ele>31.8607</ele>
        <time>2014-06-23T12:00:22Z</time>
      </trkpt>
      <trkpt lat="59.9743359" lon="17.7338784">
        <ele>31.3801</ele>
        <time>2014-06-23T12:00:23Z</time>
      </trkpt>
      <trkpt lat="59.9743334" lon="17.7339079">
        <ele>30.8995</ele>
        <time>2014-06-23T12:00:24Z</time>
      </trkpt>
      <trkpt lat="59.9743311" lon="17.7339376">
        <ele>30.8995</ele>
        <time>2014-06-23T12:00:25Z</time>
      </trkpt>
      <trkpt lat="59.974329" lon="17.7339671">
        <ele>30.4188</ele>
        <time>2014-06-23T12:00:26Z</time>
      </trkpt>
      <trkpt lat="59.9743289" lon="17.733993">
        <ele>30.4188</ele>
        <time>2014-06-23T12:00:27Z</time>
      </trkpt>
      <trkpt lat="59.9743266" lon="17.7340199">
        <ele>30.8995</ele>
        <time>2014-06-23T12:00:28Z</time>
      </trkpt>
      <trkpt lat="59.9743226" lon="17.7340482">
        <ele>30.8995</ele>
        <time>2014-06-23T12:00:29Z</time>
      </trkpt>
      <trkpt lat="59.9743211" lon="17.7340757">
        <ele>30.8995</ele>
        <time>2014-06-23T12:00:30Z</time>
      </trkpt>
      <trkpt lat="59.974318" lon="17.7341054">
        <ele>30.8995</ele>
        <time>2014-06-23T12:00:31Z</time>
      </trkpt>
      <trkpt lat="59.9743149" lon="17.7341343">
        <ele>31.3801</ele>
        <time>2014-06-23T12:00:32Z</time>
      </trkpt>
      <trkpt lat="59.9743131" lon="17.7341623">
        <ele>31.3801</ele>
        <time>2014-06-23T12:00:33Z</time>
      </trkpt>
      <trkpt lat="59.9743128" lon="17.7341899">
        <ele>31.8607</ele>
        <time>2014-06-23T12:00:34Z</time>
      </trkpt>
      <trkpt lat="59.9743123" lon="17.7342188">
        <ele>32.3416</ele>
        <time>2014-06-23T12:00:35Z</time>
      </trkpt>
      <trkpt lat="59.9743111" lon="17.7342494">
        <ele>32.8223</ele>
        <time>2014-06-23T12:00:36Z</time>
      </trkpt>
      <trkpt lat="59.9743102" lon="17.7342787">
        <ele>32.8223</ele>
        <time>2014-06-23T12:00:37Z</time>
      </trkpt>
      <trkpt lat="59.974309" lon="17.7343068">
        <ele>33.3029</ele>
        <time>2014-06-23T12:00:38Z</time>
      </trkpt>
      <trkpt lat="59.9743078" lon="17.7343343">
        <ele>33.3029</ele>
        <time>2014-06-23T12:00:39Z</time>
      </trkpt>
      <trkpt lat="59.9743076" lon="17.7343623">
        <ele>33.3029</ele>
        <time>2014-06-23T12:00:40Z</time>
      </trkpt>
      <trkpt lat="59.9743075" lon="17.7343918">
        <ele>33.3029</ele>
        <time>2014-06-23T12:00:41Z</time>
      </trkpt>
      <trkpt lat="59.9743083" lon="17.7344198">
        <ele>33.3029</ele>
        <time>2014-06-23T12:00:42Z</time>
      </trkpt>
      <trkpt lat="59.9743086" lon="17.7344492">
        <ele>33.3029</ele>
        <time>2014-06-23T12:00:43Z</time>
      </trkpt>
      <trkpt lat="59.9743087" lon="17.7344778">
        <ele>33.7834</ele>
        <time>2014-06-23T12:00:44Z</time>
      </trkpt>
      <trkpt lat="59.974308" lon="17.7345083">
        <ele>33.7834</ele>
        <time>2014-06-23T12:00:45Z</time>
      </trkpt>
      <trkpt lat="59.9743075" lon="17.7345393">
        <ele>34.2642</ele>
        <time>2014-06-23T12:00:46Z</time>
      </trkpt>
      <trkpt lat="59.974307" lon="17.734569">
        <ele>34.2642</ele>
        <time>2014-06-23T12:00:47Z</time>
      </trkpt>
      <trkpt lat="59.9743074" lon="17.7345986">
        <ele>34.2642</ele>
        <time>2014-06-23T12:00:48Z</time>
      </trkpt>
      <trkpt lat="59.9743088" lon="17.7346279">
        <ele>34.2642</ele>
        <time>2014-06-23T12:00:49Z</time>
      </trkpt>
      <trkpt lat="59.9743091" lon="17.7346575">
        <ele>34.2642</ele>
        <time>2014-06-23T12:00:50Z</time>
      </trkpt>
      <trkpt lat="59.9743095" lon="17.7346874">
        <ele>34.2642</ele>
        <time>2014-06-23T12:00:51Z</time>
      </trkpt>
      <trkpt lat="59.9743113" lon="17.7347155">
        <ele>34.2642</ele>
        <time>2014-06-23T12:00:52Z</time>
      </trkpt>
      <trkpt lat="59.9743154" lon="17.734739">
        <ele>34.2642</ele>
        <time>2014-06-23T12:00:53Z</time>
      </trkpt>
      <trkpt lat="59.974319" lon="17.7347621">
        <ele>33.7834</ele>
        <time>2014-06-23T12:00:54Z</time>
      </trkpt>
      <trkpt lat="59.974321" lon="17.7347832">
        <ele>33.7834</ele>
        <time>2014-06-23T12:00:55Z</time>
      </trkpt>
      <trkpt lat="59.9743207" lon="17.7348036">
        <ele>33.3029</ele>
        <time>2014-06-23T12:00:56Z</time>
      </trkpt>
      <trkpt lat="59.9743219" lon="17.7348294">
        <ele>33.3029</ele>
        <time>2014-06-23T12:00:57Z</time>
      </trkpt>
      <trkpt lat="59.9743236" lon="17.7348576">
        <ele>33.3029</ele>
        <time>2014-06-23T12:00:58Z</time>
      </trkpt>
      <trkpt lat="59.9743259" lon="17.7348866">
        <ele>33.3029</ele>
        <time>2014-06-23T12:00:59Z</time>
      </trkpt>
      <trkpt lat="59.9743268" lon="17.7349163">
        <ele>33.3029</ele>
        <time>2014-06-23T12:01:00Z</time>
      </trkpt>
      <trkpt lat="59.974328" lon="17.7349438">
        <ele>33.3029</ele>
        <time>2014-06-23T12:01:01Z</time>
      </trkpt>
      <trkpt lat="59.9743298" lon="17.734971">
        <ele>33.3029</ele>
        <time>2014-06-23T12:01:02Z</time>
      </trkpt>
      <trkpt lat="59.9743309" lon="17.7349992">
        <ele>33.3029</ele>
        <time>2014-06-23T12:01:03Z</time>
      </trkpt>
      <trkpt lat="59.974332" lon="17.7350275">
        <ele>33.3029</ele>
        <time>2014-06-23T12:01:04Z</time>
      </trkpt>
      <trkpt lat="59.9743341" lon="17.7350555">
        <ele>33.7834</ele>
        <time>2014-06-23T12:01:05Z</time>
      </trkpt>
      <trkpt lat="59.9743361" lon="17.7350843">
        <ele>34.2642</ele>
        <time>2014-06-23T12:01:06Z</time>
      </trkpt>
      <trkpt lat="59.9743373" lon="17.7351138">
        <ele>34.7449</ele>
        <time>2014-06-23T12:01:07Z</time>
      </trkpt>
      <trkpt lat="59.9743387" lon="17.7351429">
        <ele>35.2255</ele>
        <time>2014-06-23T12:01:08Z</time>
      </trkpt>
      <trkpt lat="59.9743403" lon="17.7351714">
        <ele>35.7061</ele>
        <time>2014-06-23T12:01:09Z</time>
      </trkpt>
      <trkpt lat="59.974342" lon="17.735201">
        <ele>36.1868</ele>
        <time>2014-06-23T12:01:10Z</time>
      </trkpt>
      <trkpt lat="59.9743443" lon="17.7352297">
        <ele>36.1868</ele>
        <time>2014-06-23T12:01:11Z</time>
      </trkpt>
      <trkpt lat="59.9743466" lon="17.7352569">
        <ele>36.6675</ele>
        <time>2014-06-23T12:01:12Z</time>
      </trkpt>
      <trkpt lat="59.9743486" lon="17.7352858">
        <ele>37.1481</ele>
        <time>2014-06-23T12:01:13Z</time>
      </trkpt>
      <trkpt lat="59.9743506" lon="17.7353154">
        <ele>37.6287</ele>
        <time>2014-06-23T12:01:14Z</time>
      </trkpt>
      <trkpt lat="59.9743538" lon="17.7353439">
        <ele>37.6287</ele>
        <time>2014-06-23T12:01:15Z</time>
      </trkpt>
      <trkpt lat="59.974358" lon="17.7353714">
        <ele>37.6287</ele>
        <time>2014-06-23T12:01:16Z</time>
      </trkpt>
      <trkpt lat="59.9743608" lon="17.735401">
        <ele>37.6287</ele>
        <time>2014-06-23T12:01:17Z</time>
      </trkpt>
      <trkpt lat="59.9743627" lon="17.7354278">
        <ele>37.1481</ele>
        <time>2014-06-23T12:01:18Z</time>
      </trkpt>
      <trkpt lat="59.9743662" lon="17.7354533">
        <ele>37.1481</ele>
        <time>2014-06-23T12:01:19Z</time>
      </trkpt>
      <trkpt lat="59.9743713" lon="17.7354781">
        <ele>36.6675</ele>
        <time>2014-06-23T12:01:20Z</time>
      </trkpt>
      <trkpt lat="59.974376" lon="17.7355065">
        <ele>36.6675</ele>
        <time>2014-06-23T12:01:21Z</time>
      </trkpt>
      <trkpt lat="59.9743792" lon="17.735538">
        <ele>36.6675</ele>
        <time>2014-06-23T12:01:22Z</time>
      </trkpt>
      <trkpt lat="59.9743834" lon="17.7355676">
        <ele>36.1868</ele>
        <time>2014-06-23T12:01:23Z</time>
      </trkpt>
      <trkpt lat="59.9743886" lon="17.7355952">
        <ele>36.1868</ele>
        <time>2014-06-23T12:01:24Z</time>
      </trkpt>
      <trkpt lat="59.9743921" lon="17.7356239">
        <ele>36.1868</ele>
        <time>2014-06-23T12:01:25Z</time>
      </trkpt>
      <trkpt lat="59.9743957" lon="17.7356521">
        <ele>36.1868</ele>
        <time>2014-06-23T12:01:26Z</time>
      </trkpt>
      <trkpt lat="59.9743994" lon="17.7356797">
        <ele>36.1868</ele>
        <time>2014-06-23T12:01:27Z</time>
      </trkpt>
      <trkpt lat="59.9744059" lon="17.7357065">
        <ele>35.7061</ele>
        <time>2014-06-23T12:01:28Z</time>
      </trkpt>
      <trkpt lat="59.9744097" lon="17.7357366">
        <ele>35.7061</ele>
        <time>2014-06-23T12:01:29Z</time>
      </trkpt>
      <trkpt lat="59.9744136" lon="17.7357669">
        <ele>35.7061</ele>
        <time>2014-06-23T12:01:30Z</time>
      </trkpt>
      <trkpt lat="59.9744199" lon="17.7357951">
        <ele>35.7061</ele>
        <time>2014-06-23T12:01:31Z</time>
      </trkpt>
      <trkpt lat="59.974424" lon="17.7358251">
        <ele>35.7061</ele>
        <time>2014-06-23T12:01:32Z</time>
      </trkpt>
      <trkpt lat="59.9744287" lon="17.7358544">
        <ele>35.7061</ele>
        <time>2014-06-23T12:01:33Z</time>
      </trkpt>
      <trkpt lat="59.9744314" lon="17.7358836">
        <ele>36.1868</ele>
        <time>2014-06-23T12:01:34Z</time>
      </trkpt>
      <trkpt lat="59.9744347" lon="17.7359132">
        <ele>36.1868</ele>
        <time>2014-06-23T12:01:35Z</time>
      </trkpt>
      <trkpt lat="59.974439" lon="17.7359427">
        <ele>36.1868</ele>
        <time>2014-06-23T12:01:36Z</time>
      </trkpt>
      <trkpt lat="59.974443" lon="17.7359715">
        <ele>36.1868</ele>
        <time>2014-06-23T12:01:37Z</time>
      </trkpt>
      <trkpt lat="59.9744471" lon="17.7359992">
        <ele>35.7061</ele>
        <time>2014-06-23T12:01:38Z</time>
      </trkpt>
      <trkpt lat="59.9744557" lon="17.7360256">
        <ele>35.2255</ele>
        <time>2014-06-23T12:01:39Z</time>
      </trkpt>
      <trkpt lat="59.974462" lon="17.7360546">
        <ele>35.2255</ele>
        <time>2014-06-23T12:01:40Z</time>
      </trkpt>
      <trkpt lat="59.9744651" lon="17.7360825">
        <ele>35.2255</ele>
        <time>2014-06-23T12:01:41Z</time>
      </trkpt>
      <trkpt lat="59.9744696" lon="17.7361085">
        <ele>35.7061</ele>
        <time>2014-06-23T12:01:42Z</time>
      </trkpt>
      <trkpt lat="59.974475" lon="17.7361357">
        <ele>35.7061</ele>
        <time>2014-06-23T12:01:43Z</time>
      </trkpt>
      <trkpt lat="59.9744817" lon="17.7361617">
        <ele>35.7061</ele>
        <time>2014-06-23T12:01:44Z</time>
      </trkpt>
      <trkpt lat="59.97449" lon="17.7361857">
        <ele>35.7061</ele>
        <time>2014-06-23T12:01:45Z</time>
      </trkpt>
      <trkpt lat="59.9744972" lon="17.7362113">
        <ele>35.2255</ele>
        <time>2014-06-23T12:01:46Z</time>
      </trkpt>
      <trkpt lat="59.9745045" lon="17.7362365">
        <ele>35.2255</ele>
        <time>2014-06-23T12:01:47Z</time>
      </trkpt>
      <trkpt lat="59.9745108" lon="17.7362617">
        <ele>34.7449</ele>
        <time>2014-06-23T12:01:48Z</time>
      </trkpt>
      <trkpt lat="59.9745164" lon="17.7362878">
        <ele>34.2642</ele>
        <time>2014-06-23T12:01:49Z</time>
      </trkpt>
      <trkpt lat="59.97452" lon="17.7363137">
        <ele>33.3029</ele>
        <time>2014-06-23T12:01:50Z</time>
      </trkpt>
      <trkpt lat="59.9745242" lon="17.7363408">
        <ele>32.8223</ele>
        <time>2014-06-23T12:01:51Z</time>
      </trkpt>
      <trkpt lat="59.9745313" lon="17.7363645">
        <ele>32.8223</ele>
        <time>2014-06-23T12:01:52Z</time>
      </trkpt>
      <trkpt lat="59.9745385" lon="17.7363892">
        <ele>32.3416</ele>
        <time>2014-06-23T12:01:53Z</time>
      </trkpt>
      <trkpt lat="59.9745445" lon="17.736412">
        <ele>31.3801</ele>
        <time>2014-06-23T12:01:54Z</time>
      </trkpt>
      <trkpt lat="59.9745511" lon="17.7364382">
        <ele>31.3801</ele>
        <time>2014-06-23T12:01:55Z</time>
      </trkpt>
      <trkpt lat="59.9745559" lon="17.7364649">
        <ele>31.3801</ele>
        <time>2014-06-23T12:01:56Z</time>
      </trkpt>
      <trkpt lat="59.9745619" lon="17.7364912">
        <ele>30.8995</ele>
        <time>2014-06-23T12:01:57Z</time>
      </trkpt>
      <trkpt lat="59.9745691" lon="17.7365177">
        <ele>30.8995</ele>
        <time>2014-06-23T12:01:58Z</time>
      </trkpt>
      <trkpt lat="59.9745756" lon="17.7365431">
        <ele>30.8995</ele>
        <time>2014-06-23T12:01:59Z</time>
      </trkpt>
      <trkpt lat="59.9745826" lon="17.7365683">
        <ele>30.4188</ele>
        <time>2014-06-23T12:02:00Z</time>
      </trkpt>
      <trkpt lat="59.9745896" lon="17.7365931">
        <ele>30.4188</ele>
        <time>2014-06-23T12:02:01Z</time>
      </trkpt>
      <trkpt lat="59.9745963" lon="17.7366178">
        <ele>30.4188</ele>
        <time>2014-06-23T12:02:02Z</time>
      </trkpt>
      <trkpt lat="59.9746032" lon="17.7366431">
        <ele>30.4188</ele>
        <time>2014-06-23T12:02:03Z</time>
      </trkpt>
      <trkpt lat="59.9746105" lon="17.7366685">
        <ele>30.4188</ele>
        <time>2014-06-23T12:02:04Z</time>
      </trkpt>
      <trkpt lat="59.9746185" lon="17.7366934">
        <ele>29.9381</ele>
        <time>2014-06-23T12:02:05Z</time>
      </trkpt>
      <trkpt lat="59.9746267" lon="17.7367182">
        <ele>29.9381</ele>
        <time>2014-06-23T12:02:06Z</time>
      </trkpt>
      <trkpt lat="59.974635" lon="17.736743">
        <ele>29.9381</ele>
        <time>2014-06-23T12:02:07Z</time>
      </trkpt>
      <trkpt lat="59.9746434" lon="17.7367674">
        <ele>29.9381</ele>
        <time>2014-06-23T12:02:08Z</time>
      </trkpt>
      <trkpt lat="59.9746517" lon="17.736792">
        <ele>29.9381</ele>
        <time>2014-06-23T12:02:09Z</time>
      </trkpt>
      <trkpt lat="59.9746594" lon="17.7368169">
        <ele>29.9381</ele>
        <time>2014-06-23T12:02:10Z</time>
      </trkpt>
      <trkpt lat="59.9746676" lon="17.7368416">
        <ele>29.9381</ele>
        <time>2014-06-23T12:02:11Z</time>
      </trkpt>
      <trkpt lat="59.9746754" lon="17.7368658">
        <ele>30.4188</ele>
        <time>2014-06-23T12:02:12Z</time>
      </trkpt>
      <trkpt lat="59.9746838" lon="17.7368902">
        <ele>30.4188</ele>
        <time>2014-06-23T12:02:13Z</time>
      </trkpt>
      <trkpt lat="59.9746924" lon="17.736914">
        <ele>30.4188</ele>
        <time>2014-06-23T12:02:14Z</time>
      </trkpt>
      <trkpt lat="59.9747009" lon="17.7369374">
        <ele>30.4188</ele>
        <time>2014-06-23T12:02:15Z</time>
      </trkpt>
      <trkpt lat="59.9747099" lon="17.736959">
        <ele>30.4188</ele>
        <time>2014-06-23T12:02:16Z</time>
      </trkpt>
      <trkpt lat="59.9747185" lon="17.7369814">
        <ele>29.9381</ele>
        <time>2014-06-23T12:02:17Z</time>
      </trkpt>
      <trkpt lat="59.9747276" lon="17.7370039">
        <ele>29.9381</ele>
        <time>2014-06-23T12:02:18Z</time>
      </trkpt>
      <trkpt lat="59.9747371" lon="17.7370259">
        <ele>29.9381</ele>
        <time>2014-06-23T12:02:19Z</time>
      </trkpt>
      <trkpt lat="59.9747455" lon="17.7370487">
        <ele>29.9381</ele>
        <time>2014-06-23T12:02:20Z</time>
      </trkpt>
      <trkpt lat="59.9747545" lon="17.7370715">
        <ele>29.9381</ele>
        <time>2014-06-23T12:02:21Z</time>
      </trkpt>
      <trkpt lat="59.9747636" lon="17.7370928">
        <ele>29.9381</ele>
        <time>2014-06-23T12:02:22Z</time>
      </trkpt>
      <trkpt lat="59.9747727" lon="17.7371144">
        <ele>29.9381</ele>
        <time>2014-06-23T12:02:23Z</time>
      </trkpt>
      <trkpt lat="59.9747809" lon="17.7371375">
        <ele>29.9381</ele>
        <time>2014-06-23T12:02:24Z</time>
      </trkpt>
      <trkpt lat="59.9747889" lon="17.7371606">
        <ele>29.9381</ele>
        <time>2014-06-23T12:02:25Z</time>
      </trkpt>
      <trkpt lat="59.974798" lon="17.7371826">
        <ele>29.9381</ele>
        <time>2014-06-23T12:02:26Z</time>
      </trkpt>
      <trkpt lat="59.9748071" lon="17.737205">
        <ele>29.9381</ele>
        <time>2014-06-23T12:02:27Z</time>
      </trkpt>
      <trkpt lat="59.9748167" lon="17.7372279">
        <ele>29.9381</ele>
        <time>2014-06-23T12:02:28Z</time>
      </trkpt>
      <trkpt lat="59.9748257" lon="17.7372503">
        <ele>29.9381</ele>
        <time>2014-06-23T12:02:29Z</time>
      </trkpt>
      <trkpt lat="59.974835" lon="17.737272">
        <ele>29.9381</ele>
        <time>2014-06-23T12:02:30Z</time>
      </trkpt>
      <trkpt lat="59.9748442" lon="17.7372933">
        <ele>29.9381</ele>
        <time>2014-06-23T12:02:31Z</time>
      </trkpt>
      <trkpt lat="59.9748529" lon="17.7373165">
        <ele>29.4575</ele>
        <time>2014-06-23T12:02:32Z</time>
      </trkpt>
      <trkpt lat="59.9748609" lon="17.7373423">
        <ele>29.4575</ele>
        <time>2014-06-23T12:02:33Z</time>
      </trkpt>
      <trkpt lat="59.9748697" lon="17.7373677">
        <ele>28.9769</ele>
        <time>2014-06-23T12:02:34Z</time>
      </trkpt>
      <trkpt lat="59.974878" lon="17.7373921">
        <ele>28.9769</ele>
        <time>2014-06-23T12:02:35Z</time>
      </trkpt>
      <trkpt lat="59.9748874" lon="17.7374155">
        <ele>28.9769</ele>
        <time>2014-06-23T12:02:36Z</time>
      </trkpt>
      <trkpt lat="59.9748969" lon="17.7374381">
        <ele>28.9769</ele>
        <time>2014-06-23T12:02:37Z</time>
      </trkpt>
      <trkpt lat="59.9749063" lon="17.7374593">
        <ele>28.9769</ele>
        <time>2014-06-23T12:02:38Z</time>
      </trkpt>
      <trkpt lat="59.9749163" lon="17.7374806">
        <ele>28.9769</ele>
        <time>2014-06-23T12:02:39Z</time>
      </trkpt>
      <trkpt lat="59.9749262" lon="17.737503">
        <ele>28.9769</ele>
        <time>2014-06-23T12:02:40Z</time>
      </trkpt>
      <trkpt lat="59.9749368" lon="17.7375252">
        <ele>28.9769</ele>
        <time>2014-06-23T12:02:41Z</time>
      </trkpt>
      <trkpt lat="59.9749473" lon="17.737547">
        <ele>28.9769</ele>
        <time>2014-06-23T12:02:42Z</time>
      </trkpt>
      <trkpt lat="59.9749577" lon="17.7375675">
        <ele>28.9769</ele>
        <time>2014-06-23T12:02:43Z</time>
      </trkpt>
      <trkpt lat="59.9749682" lon="17.737587">
        <ele>28.9769</ele>
        <time>2014-06-23T12:02:44Z</time>
      </trkpt>
      <trkpt lat="59.9749794" lon="17.7376064">
        <ele>28.9769</ele>
        <time>2014-06-23T12:02:45Z</time>
      </trkpt>
      <trkpt lat="59.9749905" lon="17.7376257">
        <ele>28.9769</ele>
        <time>2014-06-23T12:02:46Z</time>
      </trkpt>
      <trkpt lat="59.9750013" lon="17.7376457">
        <ele>28.9769</ele>
        <time>2014-06-23T12:02:47Z</time>
      </trkpt>
      <trkpt lat="59.9750123" lon="17.7376654">
        <ele>28.9769</ele>
        <time>2014-06-23T12:02:48Z</time>
      </trkpt>
      <trkpt lat="59.9750236" lon="17.7376843">
        <ele>28.9769</ele>
        <time>2014-06-23T12:02:49Z</time>
      </trkpt>
      <trkpt lat="59.9750349" lon="17.7377034">
        <ele>28.9769</ele>
        <time>2014-06-23T12:02:50Z</time>
      </trkpt>
      <trkpt lat="59.9750456" lon="17.7377225">
        <ele>28.9769</ele>
        <time>2014-06-23T12:02:51Z</time>
      </trkpt>
      <trkpt lat="59.9750563" lon="17.7377415">
        <ele>29.4575</ele>
        <time>2014-06-23T12:02:52Z</time>
      </trkpt>
      <trkpt lat="59.9750665" lon="17.7377603">
        <ele>29.4575</ele>
        <time>2014-06-23T12:02:53Z</time>
      </trkpt>
      <trkpt lat="59.9750769" lon="17.7377812">
        <ele>29.4575</ele>
        <time>2014-06-23T12:02:54Z</time>
      </trkpt>
      <trkpt lat="59.9750874" lon="17.7378008">
        <ele>29.4575</ele>
        <time>2014-06-23T12:02:55Z</time>
      </trkpt>
      <trkpt lat="59.9750993" lon="17.7378194">
        <ele>29.4575</ele>
        <time>2014-06-23T12:02:56Z</time>
      </trkpt>
      <trkpt lat="59.9751104" lon="17.7378379">
        <ele>29.4575</ele>
        <time>2014-06-23T12:02:57Z</time>
      </trkpt>
      <trkpt lat="59.975121" lon="17.7378562">
        <ele>29.4575</ele>
        <time>2014-06-23T12:02:58Z</time>
      </trkpt>
      <trkpt lat="59.9751317" lon="17.7378743">
        <ele>29.4575</ele>
        <time>2014-06-23T12:02:59Z</time>
      </trkpt>
      <trkpt lat="59.975143" lon="17.7378916">
        <ele>29.4575</ele>
        <time>2014-06-23T12:03:00Z</time>
      </trkpt>
      <trkpt lat="59.9751544" lon="17.7379087">
        <ele>29.4575</ele>
        <time>2014-06-23T12:03:01Z</time>
      </trkpt>
      <trkpt lat="59.975165" lon="17.7379262">
        <ele>29.4575</ele>
        <time>2014-06-23T12:03:02Z</time>
      </trkpt>
      <trkpt lat="59.9751764" lon="17.7379432">
        <ele>29.4575</ele>
        <time>2014-06-23T12:03:03Z</time>
      </trkpt>
      <trkpt lat="59.9751881" lon="17.7379608">
        <ele>29.4575</ele>
        <time>2014-06-23T12:03:04Z</time>
      </trkpt>
      <trkpt lat="59.9751993" lon="17.7379784">
        <ele>29.4575</ele>
        <time>2014-06-23T12:03:05Z</time>
      </trkpt>
      <trkpt lat="59.9752105" lon="17.7379967">
        <ele>29.4575</ele>
        <time>2014-06-23T12:03:06Z</time>
      </trkpt>
      <trkpt lat="59.9752203" lon="17.7380161">
        <ele>29.4575</ele>
        <time>2014-06-23T12:03:07Z</time>
      </trkpt>
      <trkpt lat="59.9752298" lon="17.7380347">
        <ele>29.4575</ele>
        <time>2014-06-23T12:03:08Z</time>
      </trkpt>
      <trkpt lat="59.9752401" lon="17.738053">
        <ele>29.9381</ele>
        <time>2014-06-23T12:03:09Z</time>
      </trkpt>
      <trkpt lat="59.9752503" lon="17.738071">
        <ele>29.9381</ele>
        <time>2014-06-23T12:03:10Z</time>
      </trkpt>
      <trkpt lat="59.9752597" lon="17.7380894">
        <ele>29.9381</ele>
        <time>2014-06-23T12:03:11Z</time>
      </trkpt>
      <trkpt lat="59.9752691" lon="17.7381085">
        <ele>29.9381</ele>
        <time>2014-06-23T12:03:12Z</time>
      </trkpt>
      <trkpt lat="59.9752787" lon="17.7381271">
        <ele>29.9381</ele>
        <time>2014-06-23T12:03:13Z</time>
      </trkpt>
      <trkpt lat="59.9752889" lon="17.7381442">
        <ele>29.9381</ele>
        <time>2014-06-23T12:03:14Z</time>
      </trkpt>
      <trkpt lat="59.9752986" lon="17.7381629">
        <ele>29.9381</ele>
        <time>2014-06-23T12:03:15Z</time>
      </trkpt>
      <trkpt lat="59.975308" lon="17.7381821">
        <ele>29.9381</ele>
        <time>2014-06-23T12:03:16Z</time>
      </trkpt>
      <trkpt lat="59.9753183" lon="17.7382003">
        <ele>29.9381</ele>
        <time>2014-06-23T12:03:17Z</time>
      </trkpt>
      <trkpt lat="59.9753288" lon="17.7382191">
        <ele>29.9381</ele>
        <time>2014-06-23T12:03:18Z</time>
      </trkpt>
      <trkpt lat="59.9753404" lon="17.7382379">
        <ele>29.9381</ele>
        <time>2014-06-23T12:03:19Z</time>
      </trkpt>
      <trkpt lat="59.975352" lon="17.7382564">
        <ele>29.9381</ele>
        <time>2014-06-23T12:03:20Z</time>
      </trkpt>
      <trkpt lat="59.9753638" lon="17.7382757">
        <ele>29.9381</ele>
        <time>2014-06-23T12:03:21Z</time>
      </trkpt>
      <trkpt lat="59.9753752" lon="17.7382959">
        <ele>29.9381</ele>
        <time>2014-06-23T12:03:22Z</time>
      </trkpt>
      <trkpt lat="59.9753867" lon="17.7383156">
        <ele>29.9381</ele>
        <time>2014-06-23T12:03:23Z</time>
      </trkpt>
      <trkpt lat="59.9753982" lon="17.7383352">
        <ele>29.9381</ele>
        <time>2014-06-23T12:03:24Z</time>
      </trkpt>
      <trkpt lat="59.9754095" lon="17.7383539">
        <ele>29.9381</ele>
        <time>2014-06-23T12:03:25Z</time>
      </trkpt>
      <trkpt lat="59.9754199" lon="17.7383726">
        <ele>29.9381</ele>
        <time>2014-06-23T12:03:26Z</time>
      </trkpt>
      <trkpt lat="59.9754306" lon="17.7383922">
        <ele>29.9381</ele>
        <time>2014-06-23T12:03:27Z</time>
      </trkpt>
      <trkpt lat="59.9754419" lon="17.7384105">
        <ele>29.9381</ele>
        <time>2014-06-23T12:03:28Z</time>
      </trkpt>
      <trkpt lat="59.9754529" lon="17.738428">
        <ele>29.9381</ele>
        <time>2014-06-23T12:03:29Z</time>
      </trkpt>
      <trkpt lat="59.9754643" lon="17.7384458">
        <ele>29.9381</ele>
        <time>2014-06-23T12:03:30Z</time>
      </trkpt>
      <trkpt lat="59.9754767" lon="17.7384636">
        <ele>29.4575</ele>
        <time>2014-06-23T12:03:31Z</time>
      </trkpt>
      <trkpt lat="59.9754892" lon="17.7384811">
        <ele>29.4575</ele>
        <time>2014-06-23T12:03:32Z</time>
      </trkpt>
      <trkpt lat="59.9755017" lon="17.7385">
        <ele>29.4575</ele>
        <time>2014-06-23T12:03:33Z</time>
      </trkpt>
      <trkpt lat="59.9755136" lon="17.7385198">
        <ele>29.4575</ele>
        <time>2014-06-23T12:03:34Z</time>
      </trkpt>
      <trkpt lat="59.975525" lon="17.7385398">
        <ele>28.9769</ele>
        <time>2014-06-23T12:03:35Z</time>
      </trkpt>
      <trkpt lat="59.9755359" lon="17.7385598">
        <ele>28.9769</ele>
        <time>2014-06-23T12:03:36Z</time>
      </trkpt>
      <trkpt lat="59.9755472" lon="17.7385807">
        <ele>28.4962</ele>
        <time>2014-06-23T12:03:37Z</time>
      </trkpt>
      <trkpt lat="59.975558" lon="17.7386023">
        <ele>28.4962</ele>
        <time>2014-06-23T12:03:38Z</time>
      </trkpt>
      <trkpt lat="59.975569" lon="17.7386234">
        <ele>28.4962</ele>
        <time>2014-06-23T12:03:39Z</time>
      </trkpt>
      <trkpt lat="59.9755802" lon="17.7386437">
        <ele>28.4962</ele>
        <time>2014-06-23T12:03:40Z</time>
      </trkpt>
      <trkpt lat="59.9755918" lon="17.7386647">
        <ele>28.4962</ele>
        <time>2014-06-23T12:03:41Z</time>
      </trkpt>
      <trkpt lat="59.9756032" lon="17.7386866">
        <ele>28.4962</ele>
        <time>2014-06-23T12:03:42Z</time>
      </trkpt>
      <trkpt lat="59.9756131" lon="17.7387077">
        <ele>28.0155</ele>
        <time>2014-06-23T12:03:43Z</time>
      </trkpt>
      <trkpt lat="59.9756249" lon="17.7387273">
        <ele>28.0155</ele>
        <time>2014-06-23T12:03:44Z</time>
      </trkpt>
      <trkpt lat="59.9756358" lon="17.7387461">
        <ele>28.0155</ele>
        <time>2014-06-23T12:03:45Z</time>
      </trkpt>
      <trkpt lat="59.9756452" lon="17.7387648">
        <ele>28.0155</ele>
        <time>2014-06-23T12:03:46Z</time>
      </trkpt>
      <trkpt lat="59.975656" lon="17.7387841">
        <ele>28.0155</ele>
        <time>2014-06-23T12:03:47Z</time>
      </trkpt>
      <trkpt lat="59.9756683" lon="17.7388017">
        <ele>28.0155</ele>
        <time>2014-06-23T12:03:48Z</time>
      </trkpt>
      <trkpt lat="59.9756797" lon="17.73882">
        <ele>28.4962</ele>
        <time>2014-06-23T12:03:49Z</time>
      </trkpt>
      <trkpt lat="59.9756911" lon="17.7388394">
        <ele>28.4962</ele>
        <time>2014-06-23T12:03:50Z</time>
      </trkpt>
      <trkpt lat="59.9757027" lon="17.7388605">
        <ele>28.0155</ele>
        <time>2014-06-23T12:03:51Z</time>
      </trkpt>
      <trkpt lat="59.9757142" lon="17.7388814">
        <ele>28.0155</ele>
        <time>2014-06-23T12:03:52Z</time>
      </trkpt>
      <trkpt lat="59.9757248" lon="17.7389017">
        <ele>28.0155</ele>
        <time>2014-06-23T12:03:53Z</time>
      </trkpt>
      <trkpt lat="59.9757361" lon="17.7389214">
        <ele>28.0155</ele>
        <time>2014-06-23T12:03:54Z</time>
      </trkpt>
      <trkpt lat="59.9757476" lon="17.7389413">
        <ele>27.5349</ele>
        <time>2014-06-23T12:03:55Z</time>
      </trkpt>
      <trkpt lat="59.9757581" lon="17.7389617">
        <ele>27.5349</ele>
        <time>2014-06-23T12:03:56Z</time>
      </trkpt>
      <trkpt lat="59.9757679" lon="17.7389802">
        <ele>27.5349</ele>
        <time>2014-06-23T12:03:57Z</time>
      </trkpt>
      <trkpt lat="59.9757783" lon="17.7389982">
        <ele>27.5349</ele>
        <time>2014-06-23T12:03:58Z</time>
      </trkpt>
      <trkpt lat="59.97579" lon="17.7390177">
        <ele>27.5349</ele>
        <time>2014-06-23T12:03:59Z</time>
      </trkpt>
      <trkpt lat="59.9758017" lon="17.7390363">
        <ele>27.5349</ele>
        <time>2014-06-23T12:04:00Z</time>
      </trkpt>
      <trkpt lat="59.975813" lon="17.7390549">
        <ele>27.5349</ele>
        <time>2014-06-23T12:04:01Z</time>
      </trkpt>
      <trkpt lat="59.9758235" lon="17.7390751">
        <ele>27.5349</ele>
        <time>2014-06-23T12:04:02Z</time>
      </trkpt>
      <trkpt lat="59.9758342" lon="17.7390967">
        <ele>27.5349</ele>
        <time>2014-06-23T12:04:03Z</time>
      </trkpt>
      <trkpt lat="59.9758446" lon="17.7391181">
        <ele>28.0155</ele>
        <time>2014-06-23T12:04:04Z</time>
      </trkpt>
      <trkpt lat="59.975856" lon="17.7391387">
        <ele>28.4962</ele>
        <time>2014-06-23T12:04:05Z</time>
      </trkpt>
      <trkpt lat="59.9758683" lon="17.739157">
        <ele>28.4962</ele>
        <time>2014-06-23T12:04:06Z</time>
      </trkpt>
      <trkpt lat="59.9758809" lon="17.7391756">
        <ele>28.9769</ele>
        <time>2014-06-23T12:04:07Z</time>
      </trkpt>
      <trkpt lat="59.9758938" lon="17.7391935">
        <ele>28.9769</ele>
        <time>2014-06-23T12:04:08Z</time>
      </trkpt>
      <trkpt lat="59.9759073" lon="17.7392118">
        <ele>28.9769</ele>
        <time>2014-06-23T12:04:09Z</time>
      </trkpt>
      <trkpt lat="59.9759205" lon="17.7392303">
        <ele>28.9769</ele>
        <time>2014-06-23T12:04:10Z</time>
      </trkpt>
      <trkpt lat="59.9759337" lon="17.7392455">
        <ele>28.4962</ele>
        <time>2014-06-23T12:04:11Z</time>
      </trkpt>
      <trkpt lat="59.9759491" lon="17.73926">
        <ele>28.4962</ele>
        <time>2014-06-23T12:04:12Z</time>
      </trkpt>
      <trkpt lat="59.9759647" lon="17.739277">
        <ele>28.4962</ele>
        <time>2014-06-23T12:04:13Z</time>
      </trkpt>
      <trkpt lat="59.9759803" lon="17.7392912">
        <ele>28.0155</ele>
        <time>2014-06-23T12:04:14Z</time>
      </trkpt>
      <trkpt lat="59.9759936" lon="17.7393064">
        <ele>28.0155</ele>
        <time>2014-06-23T12:04:15Z</time>
      </trkpt>
      <trkpt lat="59.9760067" lon="17.7393205">
        <ele>27.5349</ele>
        <time>2014-06-23T12:04:16Z</time>
      </trkpt>
      <trkpt lat="59.9760206" lon="17.7393353">
        <ele>27.5349</ele>
        <time>2014-06-23T12:04:17Z</time>
      </trkpt>
      <trkpt lat="59.9760319" lon="17.7393548">
        <ele>27.5349</ele>
        <time>2014-06-23T12:04:18Z</time>
      </trkpt>
      <trkpt lat="59.9760425" lon="17.7393728">
        <ele>27.0543</ele>
        <time>2014-06-23T12:04:19Z</time>
      </trkpt>
      <trkpt lat="59.9760532" lon="17.7393885">
        <ele>27.0543</ele>
        <time>2014-06-23T12:04:20Z</time>
      </trkpt>
      <trkpt lat="59.9760632" lon="17.7394059">
        <ele>27.0543</ele>
        <time>2014-06-23T12:04:21Z</time>
      </trkpt>
      <trkpt lat="59.976074" lon="17.7394241">
        <ele>27.0543</ele>
        <time>2014-06-23T12:04:22Z</time>
      </trkpt>
      <trkpt lat="59.9760834" lon="17.7394448">
        <ele>27.0543</ele>
        <time>2014-06-23T12:04:23Z</time>
      </trkpt>
      <trkpt lat="59.9760928" lon="17.7394663">
        <ele>27.5349</ele>
        <time>2014-06-23T12:04:24Z</time>
      </trkpt>
      <trkpt lat="59.9761025" lon="17.7394875">
        <ele>27.5349</ele>
        <time>2014-06-23T12:04:25Z</time>
      </trkpt>
      <trkpt lat="59.9761139" lon="17.7395082">
        <ele>28.0155</ele>
        <time>2014-06-23T12:04:26Z</time>
      </trkpt>
      <trkpt lat="59.9761272" lon="17.7395264">
        <ele>28.4962</ele>
        <time>2014-06-23T12:04:27Z</time>
      </trkpt>
      <trkpt lat="59.9761388" lon="17.7395455">
        <ele>28.4962</ele>
        <time>2014-06-23T12:04:28Z</time>
      </trkpt>
      <trkpt lat="59.9761487" lon="17.7395651">
        <ele>28.9769</ele>
        <time>2014-06-23T12:04:29Z</time>
      </trkpt>
      <trkpt lat="59.9761601" lon="17.7395834">
        <ele>28.9769</ele>
        <time>2014-06-23T12:04:30Z</time>
      </trkpt>
      <trkpt lat="59.9761724" lon="17.7396017">
        <ele>29.4575</ele>
        <time>2014-06-23T12:04:31Z</time>
      </trkpt>
      <trkpt lat="59.976184" lon="17.7396198">
        <ele>29.9381</ele>
        <time>2014-06-23T12:04:32Z</time>
      </trkpt>
      <trkpt lat="59.9761967" lon="17.7396373">
        <ele>30.4188</ele>
        <time>2014-06-23T12:04:33Z</time>
      </trkpt>
      <trkpt lat="59.9762077" lon="17.739654">
        <ele>30.8995</ele>
        <time>2014-06-23T12:04:34Z</time>
      </trkpt>
      <trkpt lat="59.9762205" lon="17.7396699">
        <ele>30.8995</ele>
        <time>2014-06-23T12:04:35Z</time>
      </trkpt>
      <trkpt lat="59.9762336" lon="17.7396859">
        <ele>30.8995</ele>
        <time>2014-06-23T12:04:36Z</time>
      </trkpt>
      <trkpt lat="59.976248" lon="17.7396987">
        <ele>31.3801</ele>
        <time>2014-06-23T12:04:37Z</time>
      </trkpt>
      <trkpt lat="59.9762625" lon="17.7397067">
        <ele>31.3801</ele>
        <time>2014-06-23T12:04:38Z</time>
      </trkpt>
      <trkpt lat="59.9762761" lon="17.7397113">
        <ele>31.3801</ele>
        <time>2014-06-23T12:04:39Z</time>
      </trkpt>
      <trkpt lat="59.9762875" lon="17.7397174">
        <ele>30.8995</ele>
        <time>2014-06-23T12:04:40Z</time>
      </trkpt>
      <trkpt lat="59.9763004" lon="17.7397217">
        <ele>30.8995</ele>
        <time>2014-06-23T12:04:41Z</time>
      </trkpt>
      <trkpt lat="59.9763132" lon="17.7397216">
        <ele>30.8995</ele>
        <time>2014-06-23T12:04:42Z</time>
      </trkpt>
      <trkpt lat="59.9763259" lon="17.7397226">
        <ele>31.3801</ele>
        <time>2014-06-23T12:04:43Z</time>
      </trkpt>
      <trkpt lat="59.976338" lon="17.7397221">
        <ele>30.8995</ele>
        <time>2014-06-23T12:04:44Z</time>
      </trkpt>
      <trkpt lat="59.976351" lon="17.7397139">
        <ele>30.8995</ele>
        <time>2014-06-23T12:04:45Z</time>
      </trkpt>
      <trkpt lat="59.9763624" lon="17.7396986">
        <ele>30.8995</ele>
        <time>2014-06-23T12:04:46Z</time>
      </trkpt>
      <trkpt lat="59.9763731" lon="17.739678">
        <ele>31.3801</ele>
        <time>2014-06-23T12:04:47Z</time>
      </trkpt>
      <trkpt lat="59.9763838" lon="17.7396561">
        <ele>31.3801</ele>
        <time>2014-06-23T12:04:48Z</time>
      </trkpt>
      <trkpt lat="59.9763948" lon="17.7396362">
        <ele>30.8995</ele>
        <time>2014-06-23T12:04:49Z</time>
      </trkpt>
      <trkpt lat="59.9764071" lon="17.7396158">
        <ele>30.8995</ele>
        <time>2014-06-23T12:04:50Z</time>
      </trkpt>
      <trkpt lat="59.9764205" lon="17.7395942">
        <ele>31.3801</ele>
        <time>2014-06-23T12:04:51Z</time>
      </trkpt>
      <trkpt lat="59.9764319" lon="17.7395761">
        <ele>31.3801</ele>
        <time>2014-06-23T12:04:52Z</time>
      </trkpt>
      <trkpt lat="59.9764429" lon="17.7395593">
        <ele>31.3801</ele>
        <time>2014-06-23T12:04:53Z</time>
      </trkpt>
      <trkpt lat="59.9764543" lon="17.7395408">
        <ele>31.3801</ele>
        <time>2014-06-23T12:04:54Z</time>
      </trkpt>
      <trkpt lat="59.9764656" lon="17.7395216">
        <ele>31.3801</ele>
        <time>2014-06-23T12:04:55Z</time>
      </trkpt>
      <trkpt lat="59.976476" lon="17.7395061">
        <ele>31.3801</ele>
        <time>2014-06-23T12:04:56Z</time>
      </trkpt>
      <trkpt lat="59.9764885" lon="17.7394926">
        <ele>31.8607</ele>
        <time>2014-06-23T12:04:57Z</time>
      </trkpt>
      <trkpt lat="59.9765004" lon="17.7394798">
        <ele>31.8607</ele>
        <time>2014-06-23T12:04:58Z</time>
      </trkpt>
      <trkpt lat="59.9765114" lon="17.7394687">
        <ele>31.8607</ele>
        <time>2014-06-23T12:04:59Z</time>
      </trkpt>
      <trkpt lat="59.976524" lon="17.7394582">
        <ele>32.3416</ele>
        <time>2014-06-23T12:05:00Z</time>
      </trkpt>
      <trkpt lat="59.9765359" lon="17.7394469">
        <ele>32.3416</ele>
        <time>2014-06-23T12:05:01Z</time>
      </trkpt>
      <trkpt lat="59.9765465" lon="17.7394341">
        <ele>32.8223</ele>
        <time>2014-06-23T12:05:02Z</time>
      </trkpt>
      <trkpt lat="59.9765579" lon="17.7394237">
        <ele>32.8223</ele>
        <time>2014-06-23T12:05:03Z</time>
      </trkpt>
      <trkpt lat="59.9765713" lon="17.7394161">
        <ele>32.8223</ele>
        <time>2014-06-23T12:05:04Z</time>
      </trkpt>
      <trkpt lat="59.9765853" lon="17.7394082">
        <ele>33.3029</ele>
        <time>2014-06-23T12:05:05Z</time>
      </trkpt>
      <trkpt lat="59.9765989" lon="17.739402">
        <ele>33.3029</ele>
        <time>2014-06-23T12:05:06Z</time>
      </trkpt>
      <trkpt lat="59.9766107" lon="17.7393983">
        <ele>33.3029</ele>
        <time>2014-06-23T12:05:07Z</time>
      </trkpt>
      <trkpt lat="59.9766248" lon="17.7393945">
        <ele>33.7834</ele>
        <time>2014-06-23T12:05:08Z</time>
      </trkpt>
      <trkpt lat="59.9766392" lon="17.7393888">
        <ele>33.7834</ele>
        <time>2014-06-23T12:05:09Z</time>
      </trkpt>
      <trkpt lat="59.9766532" lon="17.7393823">
        <ele>34.2642</ele>
        <time>2014-06-23T12:05:10Z</time>
      </trkpt>
      <trkpt lat="59.9766656" lon="17.7393767">
        <ele>34.2642</ele>
        <time>2014-06-23T12:05:11Z</time>
      </trkpt>
      <trkpt lat="59.9766777" lon="17.7393723">
        <ele>34.2642</ele>
        <time>2014-06-23T12:05:12Z</time>
      </trkpt>
      <trkpt lat="59.9766887" lon="17.7393642">
        <ele>34.2642</ele>
        <time>2014-06-23T12:05:13Z</time>
      </trkpt>
      <trkpt lat="59.9766996" lon="17.73936">
        <ele>34.2642</ele>
        <time>2014-06-23T12:05:14Z</time>
      </trkpt>
      <trkpt lat="59.9767129" lon="17.739359">
        <ele>34.2642</ele>
        <time>2014-06-23T12:05:15Z</time>
      </trkpt>
      <trkpt lat="59.9767277" lon="17.7393585">
        <ele>33.7834</ele>
        <time>2014-06-23T12:05:16Z</time>
      </trkpt>
      <trkpt lat="59.9767412" lon="17.7393564">
        <ele>34.2642</ele>
        <time>2014-06-23T12:05:17Z</time>
      </trkpt>
      <trkpt lat="59.9767537" lon="17.7393543">
        <ele>34.2642</ele>
        <time>2014-06-23T12:05:18Z</time>
      </trkpt>
      <trkpt lat="59.9767672" lon="17.7393486">
        <ele>34.2642</ele>
        <time>2014-06-23T12:05:19Z</time>
      </trkpt>
      <trkpt lat="59.9767807" lon="17.739344">
        <ele>34.2642</ele>
        <time>2014-06-23T12:05:20Z</time>
      </trkpt>
      <trkpt lat="59.9767936" lon="17.7393386">
        <ele>34.7449</ele>
        <time>2014-06-23T12:05:21Z</time>
      </trkpt>
      <trkpt lat="59.976806" lon="17.739333">
        <ele>34.7449</ele>
        <time>2014-06-23T12:05:22Z</time>
      </trkpt>
      <trkpt lat="59.9768179" lon="17.7393285">
        <ele>34.7449</ele>
        <time>2014-06-23T12:05:23Z</time>
      </trkpt>
      <trkpt lat="59.9768307" lon="17.7393238">
        <ele>34.7449</ele>
        <time>2014-06-23T12:05:24Z</time>
      </trkpt>
      <trkpt lat="59.9768442" lon="17.7393187">
        <ele>35.2255</ele>
        <time>2014-06-23T12:05:25Z</time>
      </trkpt>
      <trkpt lat="59.97686" lon="17.7393174">
        <ele>35.2255</ele>
        <time>2014-06-23T12:05:26Z</time>
      </trkpt>
      <trkpt lat="59.976876" lon="17.7393134">
        <ele>35.2255</ele>
        <time>2014-06-23T12:05:27Z</time>
      </trkpt>
      <trkpt lat="59.9768916" lon="17.7393098">
        <ele>35.7061</ele>
        <time>2014-06-23T12:05:28Z</time>
      </trkpt>
      <trkpt lat="59.9769059" lon="17.7393076">
        <ele>35.7061</ele>
        <time>2014-06-23T12:05:29Z</time>
      </trkpt>
      <trkpt lat="59.9769195" lon="17.739305">
        <ele>35.7061</ele>
        <time>2014-06-23T12:05:30Z</time>
      </trkpt>
      <trkpt lat="59.9769329" lon="17.739301">
        <ele>35.7061</ele>
        <time>2014-06-23T12:05:31Z</time>
      </trkpt>
      <trkpt lat="59.976945" lon="17.7392953">
        <ele>35.7061</ele>
        <time>2014-06-23T12:05:32Z</time>
      </trkpt>
      <trkpt lat="59.9769557" lon="17.7392787">
        <ele>35.7061</ele>
        <time>2014-06-23T12:05:33Z</time>
      </trkpt>
      <trkpt lat="59.9769657" lon="17.7392671">
        <ele>35.7061</ele>
        <time>2014-06-23T12:05:34Z</time>
      </trkpt>
      <trkpt lat="59.9769765" lon="17.7392563">
        <ele>35.7061</ele>
        <time>2014-06-23T12:05:35Z</time>
      </trkpt>
      <trkpt lat="59.9769889" lon="17.7392527">
        <ele>35.2255</ele>
        <time>2014-06-23T12:05:36Z</time>
      </trkpt>
      <trkpt lat="59.9770023" lon="17.7392458">
        <ele>35.2255</ele>
        <time>2014-06-23T12:05:37Z</time>
      </trkpt>
      <trkpt lat="59.9770157" lon="17.7392404">
        <ele>35.2255</ele>
        <time>2014-06-23T12:05:38Z</time>
      </trkpt>
      <trkpt lat="59.9770294" lon="17.7392324">
        <ele>35.2255</ele>
        <time>2014-06-23T12:05:39Z</time>
      </trkpt>
      <trkpt lat="59.9770429" lon="17.7392227">
        <ele>35.7061</ele>
        <time>2014-06-23T12:05:40Z</time>
      </trkpt>
      <trkpt lat="59.9770573" lon="17.7392144">
        <ele>35.7061</ele>
        <time>2014-06-23T12:05:41Z</time>
      </trkpt>
      <trkpt lat="59.9770723" lon="17.7392103">
        <ele>35.7061</ele>
        <time>2014-06-23T12:05:42Z</time>
      </trkpt>
      <trkpt lat="59.9770855" lon="17.7392051">
        <ele>35.7061</ele>
        <time>2014-06-23T12:05:43Z</time>
      </trkpt>
      <trkpt lat="59.9770987" lon="17.7391998">
        <ele>35.7061</ele>
        <time>2014-06-23T12:05:44Z</time>
      </trkpt>
      <trkpt lat="59.9771114" lon="17.7391954">
        <ele>35.7061</ele>
        <time>2014-06-23T12:05:45Z</time>
      </trkpt>
      <trkpt lat="59.9771257" lon="17.7391967">
        <ele>35.7061</ele>
        <time>2014-06-23T12:05:46Z</time>
      </trkpt>
      <trkpt lat="59.9771411" lon="17.7391988">
        <ele>35.7061</ele>
        <time>2014-06-23T12:05:47Z</time>
      </trkpt>
      <trkpt lat="59.977155" lon="17.7391983">
        <ele>35.7061</ele>
        <time>2014-06-23T12:05:48Z</time>
      </trkpt>
      <trkpt lat="59.9771671" lon="17.739193">
        <ele>35.7061</ele>
        <time>2014-06-23T12:05:49Z</time>
      </trkpt>
      <trkpt lat="59.9771781" lon="17.7391791">
        <ele>36.1868</ele>
        <time>2014-06-23T12:05:50Z</time>
      </trkpt>
      <trkpt lat="59.9771894" lon="17.7391695">
        <ele>36.1868</ele>
        <time>2014-06-23T12:05:51Z</time>
      </trkpt>
      <trkpt lat="59.9772022" lon="17.7391624">
        <ele>36.6675</ele>
        <time>2014-06-23T12:05:52Z</time>
      </trkpt>
      <trkpt lat="59.9772153" lon="17.7391539">
        <ele>36.6675</ele>
        <time>2014-06-23T12:05:53Z</time>
      </trkpt>
      <trkpt lat="59.977229" lon="17.7391453">
        <ele>36.6675</ele>
        <time>2014-06-23T12:05:54Z</time>
      </trkpt>
      <trkpt lat="59.9772418" lon="17.7391356">
        <ele>36.6675</ele>
        <time>2014-06-23T12:05:55Z</time>
      </trkpt>
      <trkpt lat="59.9772542" lon="17.739133">
        <ele>37.1481</ele>
        <time>2014-06-23T12:05:56Z</time>
      </trkpt>
      <trkpt lat="59.9772659" lon="17.7391296">
        <ele>37.1481</ele>
        <time>2014-06-23T12:05:57Z</time>
      </trkpt>
      <trkpt lat="59.9772775" lon="17.7391206">
        <ele>37.6287</ele>
        <time>2014-06-23T12:05:58Z</time>
      </trkpt>
      <trkpt lat="59.9772896" lon="17.7391137">
        <ele>37.6287</ele>
        <time>2014-06-23T12:05:59Z</time>
      </trkpt>
      <trkpt lat="59.9773017" lon="17.7391072">
        <ele>37.6287</ele>
        <time>2014-06-23T12:06:00Z</time>
      </trkpt>
      <trkpt lat="59.9773148" lon="17.7391001">
        <ele>37.6287</ele>
        <time>2014-06-23T12:06:01Z</time>
      </trkpt>
      <trkpt lat="59.9773271" lon="17.7390957">
        <ele>37.6287</ele>
        <time>2014-06-23T12:06:02Z</time>
      </trkpt>
      <trkpt lat="59.9773396" lon="17.7390931">
        <ele>38.1094</ele>
        <time>2014-06-23T12:06:03Z</time>
      </trkpt>
      <trkpt lat="59.977352" lon="17.739087">
        <ele>38.1094</ele>
        <time>2014-06-23T12:06:04Z</time>
      </trkpt>
      <trkpt lat="59.9773638" lon="17.7390813">
        <ele>38.1094</ele>
        <time>2014-06-23T12:06:05Z</time>
      </trkpt>
      <trkpt lat="59.9773762" lon="17.7390744">
        <ele>38.1094</ele>
        <time>2014-06-23T12:06:06Z</time>
      </trkpt>
      <trkpt lat="59.9773868" lon="17.7390685">
        <ele>38.1094</ele>
        <time>2014-06-23T12:06:07Z</time>
      </trkpt>
      <trkpt lat="59.9773981" lon="17.7390638">
        <ele>38.1094</ele>
        <time>2014-06-23T12:06:08Z</time>
      </trkpt>
      <trkpt lat="59.9774109" lon="17.739058">
        <ele>38.1094</ele>
        <time>2014-06-23T12:06:09Z</time>
      </trkpt>
      <trkpt lat="59.9774229" lon="17.7390506">
        <ele>37.6287</ele>
        <time>2014-06-23T12:06:10Z</time>
      </trkpt>
      <trkpt lat="59.9774349" lon="17.739035">
        <ele>37.1481</ele>
        <time>2014-06-23T12:06:11Z</time>
      </trkpt>
      <trkpt lat="59.9774472" lon="17.7390231">
        <ele>37.1481</ele>
        <time>2014-06-23T12:06:12Z</time>
      </trkpt>
      <trkpt lat="59.977458" lon="17.7390155">
        <ele>36.6675</ele>
        <time>2014-06-23T12:06:13Z</time>
      </trkpt>
      <trkpt lat="59.9774696" lon="17.7390081">
        <ele>36.6675</ele>
        <time>2014-06-23T12:06:14Z</time>
      </trkpt>
      <trkpt lat="59.9774831" lon="17.7390029">
        <ele>37.1481</ele>
        <time>2014-06-23T12:06:15Z</time>
      </trkpt>
      <trkpt lat="59.9774958" lon="17.739">
        <ele>37.1481</ele>
        <time>2014-06-23T12:06:16Z</time>
      </trkpt>
      <trkpt lat="59.977509" lon="17.7389984">
        <ele>37.1481</ele>
        <time>2014-06-23T12:06:17Z</time>
      </trkpt>
      <trkpt lat="59.977522" lon="17.7389952">
        <ele>37.1481</ele>
        <time>2014-06-23T12:06:18Z</time>
      </trkpt>
      <trkpt lat="59.9775347" lon="17.7389907">
        <ele>37.1481</ele>
        <time>2014-06-23T12:06:19Z</time>
      </trkpt>
      <trkpt lat="59.9775482" lon="17.7389877">
        <ele>37.1481</ele>
        <time>2014-06-23T12:06:20Z</time>
      </trkpt>
      <trkpt lat="59.9775619" lon="17.7389842">
        <ele>37.1481</ele>
        <time>2014-06-23T12:06:21Z</time>
      </trkpt>
      <trkpt lat="59.9775752" lon="17.7389808">
        <ele>37.1481</ele>
        <time>2014-06-23T12:06:22Z</time>
      </trkpt>
      <trkpt lat="59.9775883" lon="17.7389811">
        <ele>37.1481</ele>
        <time>2014-06-23T12:06:23Z</time>
      </trkpt>
      <trkpt lat="59.9776002" lon="17.7389792">
        <ele>37.1481</ele>
        <time>2014-06-23T12:06:24Z</time>
      </trkpt>
      <trkpt lat="59.9776114" lon="17.7389793">
        <ele>37.1481</ele>
        <time>2014-06-23T12:06:25Z</time>
      </trkpt>
      <trkpt lat="59.9776233" lon="17.7389768">
        <ele>37.1481</ele>
        <time>2014-06-23T12:06:26Z</time>
      </trkpt>
      <trkpt lat="59.9776391" lon="17.7389737">
        <ele>37.6287</ele>
        <time>2014-06-23T12:06:27Z</time>
      </trkpt>
      <trkpt lat="59.977655" lon="17.7389742">
        <ele>37.6287</ele>
        <time>2014-06-23T12:06:28Z</time>
      </trkpt>
      <trkpt lat="59.9776693" lon="17.7389746">
        <ele>37.6287</ele>
        <time>2014-06-23T12:06:29Z</time>
      </trkpt>
      <trkpt lat="59.9776866" lon="17.7389754">
        <ele>38.1094</ele>
        <time>2014-06-23T12:06:30Z</time>
      </trkpt>
      <trkpt lat="59.977703" lon="17.7389762">
        <ele>38.1094</ele>
        <time>2014-06-23T12:06:31Z</time>
      </trkpt>
      <trkpt lat="59.9777166" lon="17.7389793">
        <ele>38.1094</ele>
        <time>2014-06-23T12:06:32Z</time>
      </trkpt>
      <trkpt lat="59.9777311" lon="17.7389818">
        <ele>38.5901</ele>
        <time>2014-06-23T12:06:33Z</time>
      </trkpt>
      <trkpt lat="59.9777451" lon="17.7389829">
        <ele>38.5901</ele>
        <time>2014-06-23T12:06:34Z</time>
      </trkpt>
      <trkpt lat="59.9777593" lon="17.7389856">
        <ele>38.5901</ele>
        <time>2014-06-23T12:06:35Z</time>
      </trkpt>
      <trkpt lat="59.977774" lon="17.7389892">
        <ele>38.5901</ele>
        <time>2014-06-23T12:06:36Z</time>
      </trkpt>
      <trkpt lat="59.977789" lon="17.7389941">
        <ele>39.0707</ele>
        <time>2014-06-23T12:06:37Z</time>
      </trkpt>
      <trkpt lat="59.9778032" lon="17.738999">
        <ele>39.0707</ele>
        <time>2014-06-23T12:06:38Z</time>
      </trkpt>
      <trkpt lat="59.9778151" lon="17.7390031">
        <ele>39.0707</ele>
        <time>2014-06-23T12:06:39Z</time>
      </trkpt>
      <trkpt lat="59.9778295" lon="17.7390084">
        <ele>39.0707</ele>
        <time>2014-06-23T12:06:40Z</time>
      </trkpt>
      <trkpt lat="59.9778435" lon="17.7390143">
        <ele>39.0707</ele>
        <time>2014-06-23T12:06:41Z</time>
      </trkpt>
      <trkpt lat="59.977858" lon="17.7390176">
        <ele>39.0707</ele>
        <time>2014-06-23T12:06:42Z</time>
      </trkpt>
      <trkpt lat="59.9778721" lon="17.7390227">
        <ele>38.5901</ele>
        <time>2014-06-23T12:06:43Z</time>
      </trkpt>
      <trkpt lat="59.9778865" lon="17.7390305">
        <ele>38.5901</ele>
        <time>2014-06-23T12:06:44Z</time>
      </trkpt>
      <trkpt lat="59.9779001" lon="17.7390395">
        <ele>38.5901</ele>
        <time>2014-06-23T12:06:45Z</time>
      </trkpt>
      <trkpt lat="59.9779115" lon="17.7390487">
        <ele>38.5901</ele>
        <time>2014-06-23T12:06:46Z</time>
      </trkpt>
      <trkpt lat="59.977923" lon="17.739058">
        <ele>38.1094</ele>
        <time>2014-06-23T12:06:47Z</time>
      </trkpt>
      <trkpt lat="59.9779353" lon="17.7390669">
        <ele>37.6287</ele>
        <time>2014-06-23T12:06:48Z</time>
      </trkpt>
      <trkpt lat="59.9779468" lon="17.739075">
        <ele>37.1481</ele>
        <time>2014-06-23T12:06:49Z</time>
      </trkpt>
      <trkpt lat="59.9779597" lon="17.7390796">
        <ele>37.1481</ele>
        <time>2014-06-23T12:06:50Z</time>
      </trkpt>
      <trkpt lat="59.9779725" lon="17.7390853">
        <ele>36.6675</ele>
        <time>2014-06-23T12:06:51Z</time>
      </trkpt>
      <trkpt lat="59.9779864" lon="17.7390886">
        <ele>36.1868</ele>
        <time>2014-06-23T12:06:52Z</time>
      </trkpt>
      <trkpt lat="59.9779983" lon="17.7390915">
        <ele>35.7061</ele>
        <time>2014-06-23T12:06:53Z</time>
      </trkpt>
      <trkpt lat="59.9780093" lon="17.7390956">
        <ele>35.7061</ele>
        <time>2014-06-23T12:06:54Z</time>
      </trkpt>
      <trkpt lat="59.9780214" lon="17.7391015">
        <ele>35.2255</ele>
        <time>2014-06-23T12:06:55Z</time>
      </trkpt>
      <trkpt lat="59.9780353" lon="17.7391056">
        <ele>35.2255</ele>
        <time>2014-06-23T12:06:56Z</time>
      </trkpt>
      <trkpt lat="59.9780471" lon="17.7391117">
        <ele>34.7449</ele>
        <time>2014-06-23T12:06:57Z</time>
      </trkpt>
      <trkpt lat="59.9780622" lon="17.7391171">
        <ele>34.7449</ele>
        <time>2014-06-23T12:06:58Z</time>
      </trkpt>
      <trkpt lat="59.9780783" lon="17.7391197">
        <ele>34.2642</ele>
        <time>2014-06-23T12:06:59Z</time>
      </trkpt>
      <trkpt lat="59.9780934" lon="17.7391228">
        <ele>34.2642</ele>
        <time>2014-06-23T12:07:00Z</time>
      </trkpt>
      <trkpt lat="59.9781071" lon="17.7391253">
        <ele>34.2642</ele>
        <time>2014-06-23T12:07:01Z</time>
      </trkpt>
      <trkpt lat="59.978116" lon="17.7391309">
        <ele>33.7834</ele>
        <time>2014-06-23T12:07:02Z</time>
      </trkpt>
      <trkpt lat="59.9781289" lon="17.7391347">
        <ele>33.7834</ele>
        <time>2014-06-23T12:07:03Z</time>
      </trkpt>
      <trkpt lat="59.9781433" lon="17.7391373">
        <ele>33.7834</ele>
        <time>2014-06-23T12:07:04Z</time>
      </trkpt>
      <trkpt lat="59.9781565" lon="17.7391398">
        <ele>33.7834</ele>
        <time>2014-06-23T12:07:05Z</time>
      </trkpt>
      <trkpt lat="59.9781708" lon="17.7391404">
        <ele>33.3029</ele>
        <time>2014-06-23T12:07:06Z</time>
      </trkpt>
      <trkpt lat="59.9781863" lon="17.7391389">
        <ele>33.3029</ele>
        <time>2014-06-23T12:07:07Z</time>
      </trkpt>
      <trkpt lat="59.9782021" lon="17.7391394">
        <ele>33.3029</ele>
        <time>2014-06-23T12:07:08Z</time>
      </trkpt>
      <trkpt lat="59.9782177" lon="17.739141">
        <ele>33.7834</ele>
        <time>2014-06-23T12:07:09Z</time>
      </trkpt>
      <trkpt lat="59.9782337" lon="17.7391374">
        <ele>33.7834</ele>
        <time>2014-06-23T12:07:10Z</time>
      </trkpt>
      <trkpt lat="59.9782495" lon="17.7391372">
        <ele>33.7834</ele>
        <time>2014-06-23T12:07:11Z</time>
      </trkpt>
      <trkpt lat="59.9782637" lon="17.7391413">
        <ele>33.7834</ele>
        <time>2014-06-23T12:07:12Z</time>
      </trkpt>
      <trkpt lat="59.9782777" lon="17.7391434">
        <ele>33.7834</ele>
        <time>2014-06-23T12:07:13Z</time>
      </trkpt>
      <trkpt lat="59.9782921" lon="17.7391431">
        <ele>33.7834</ele>
        <time>2014-06-23T12:07:14Z</time>
      </trkpt>
      <trkpt lat="59.978307" lon="17.739143">
        <ele>33.7834</ele>
        <time>2014-06-23T12:07:15Z</time>
      </trkpt>
      <trkpt lat="59.9783212" lon="17.7391425">
        <ele>34.2642</ele>
        <time>2014-06-23T12:07:16Z</time>
      </trkpt>
      <trkpt lat="59.9783334" lon="17.7391466">
        <ele>34.2642</ele>
        <time>2014-06-23T12:07:17Z</time>
      </trkpt>
      <trkpt lat="59.9783464" lon="17.7391517">
        <ele>34.7449</ele>
        <time>2014-06-23T12:07:18Z</time>
      </trkpt>
      <trkpt lat="59.9783596" lon="17.7391564">
        <ele>34.7449</ele>
        <time>2014-06-23T12:07:19Z</time>
      </trkpt>
      <trkpt lat="59.978373" lon="17.7391615">
        <ele>35.2255</ele>
        <time>2014-06-23T12:07:20Z</time>
      </trkpt>
      <trkpt lat="59.9783886" lon="17.7391632">
        <ele>35.2255</ele>
        <time>2014-06-23T12:07:21Z</time>
      </trkpt>
      <trkpt lat="59.9784014" lon="17.7391678">
        <ele>35.7061</ele>
        <time>2014-06-23T12:07:22Z</time>
      </trkpt>
      <trkpt lat="59.9784137" lon="17.739169">
        <ele>35.2255</ele>
        <time>2014-06-23T12:07:23Z</time>
      </trkpt>
      <trkpt lat="59.9784262" lon="17.7391734">
        <ele>35.7061</ele>
        <time>2014-06-23T12:07:24Z</time>
      </trkpt>
      <trkpt lat="59.978441" lon="17.7391842">
        <ele>35.7061</ele>
        <time>2014-06-23T12:07:25Z</time>
      </trkpt>
      <trkpt lat="59.9784557" lon="17.7391937">
        <ele>35.7061</ele>
        <time>2014-06-23T12:07:26Z</time>
      </trkpt>
      <trkpt lat="59.9784705" lon="17.7392006">
        <ele>36.1868</ele>
        <time>2014-06-23T12:07:27Z</time>
      </trkpt>
      <trkpt lat="59.9784879" lon="17.7392046">
        <ele>36.1868</ele>
        <time>2014-06-23T12:07:28Z</time>
      </trkpt>
      <trkpt lat="59.9785042" lon="17.7392114">
        <ele>36.1868</ele>
        <time>2014-06-23T12:07:29Z</time>
      </trkpt>
      <trkpt lat="59.9785168" lon="17.7392181">
        <ele>36.1868</ele>
        <time>2014-06-23T12:07:30Z</time>
      </trkpt>
      <trkpt lat="59.9785294" lon="17.7392264">
        <ele>36.1868</ele>
        <time>2014-06-23T12:07:31Z</time>
      </trkpt>
      <trkpt lat="59.9785453" lon="17.7392367">
        <ele>36.6675</ele>
        <time>2014-06-23T12:07:32Z</time>
      </trkpt>
      <trkpt lat="59.9785616" lon="17.7392428">
        <ele>36.6675</ele>
        <time>2014-06-23T12:07:33Z</time>
      </trkpt>
      <trkpt lat="59.9785784" lon="17.7392495">
        <ele>36.6675</ele>
        <time>2014-06-23T12:07:34Z</time>
      </trkpt>
      <trkpt lat="59.9785942" lon="17.7392541">
        <ele>36.6675</ele>
        <time>2014-06-23T12:07:35Z</time>
      </trkpt>
      <trkpt lat="59.9786097" lon="17.7392533">
        <ele>36.6675</ele>
        <time>2014-06-23T12:07:36Z</time>
      </trkpt>
      <trkpt lat="59.9786263" lon="17.7392532">
        <ele>36.6675</ele>
        <time>2014-06-23T12:07:37Z</time>
      </trkpt>
      <trkpt lat="59.9786449" lon="17.7392523">
        <ele>36.6675</ele>
        <time>2014-06-23T12:07:38Z</time>
      </trkpt>
      <trkpt lat="59.9786641" lon="17.7392505">
        <ele>36.6675</ele>
        <time>2014-06-23T12:07:39Z</time>
      </trkpt>
      <trkpt lat="59.9786837" lon="17.739246">
        <ele>37.1481</ele>
        <time>2014-06-23T12:07:40Z</time>
      </trkpt>
      <trkpt lat="59.9787059" lon="17.7392388">
        <ele>37.1481</ele>
        <time>2014-06-23T12:07:41Z</time>
      </trkpt>
      <trkpt lat="59.978725" lon="17.7392308">
        <ele>36.6675</ele>
        <time>2014-06-23T12:07:42Z</time>
      </trkpt>
      <trkpt lat="59.9787444" lon="17.7392238">
        <ele>37.1481</ele>
        <time>2014-06-23T12:07:43Z</time>
      </trkpt>
      <trkpt lat="59.9787588" lon="17.7392264">
        <ele>36.6675</ele>
        <time>2014-06-23T12:07:44Z</time>
      </trkpt>
      <trkpt lat="59.978772" lon="17.7392289">
        <ele>36.6675</ele>
        <time>2014-06-23T12:07:45Z</time>
      </trkpt>
      <trkpt lat="59.9787858" lon="17.739227">
        <ele>37.1481</ele>
        <time>2014-06-23T12:07:46Z</time>
      </trkpt>
      <trkpt lat="59.9787988" lon="17.7392288">
        <ele>37.1481</ele>
        <time>2014-06-23T12:07:47Z</time>
      </trkpt>
      <trkpt lat="59.9788147" lon="17.7392345">
        <ele>37.6287</ele>
        <time>2014-06-23T12:07:48Z</time>
      </trkpt>
      <trkpt lat="59.9788264" lon="17.7392435">
        <ele>37.6287</ele>
        <time>2014-06-23T12:07:49Z</time>
      </trkpt>
      <trkpt lat="59.9788435" lon="17.7392531">
        <ele>38.1094</ele>
        <time>2014-06-23T12:07:50Z</time>
      </trkpt>
      <trkpt lat="59.9788587" lon="17.7392682">
        <ele>37.6287</ele>
        <time>2014-06-23T12:07:51Z</time>
      </trkpt>
      <trkpt lat="59.978868" lon="17.7392906">
        <ele>37.6287</ele>
        <time>2014-06-23T12:07:52Z</time>
      </trkpt>
      <trkpt lat="59.9788764" lon="17.7393091">
        <ele>37.1481</ele>
        <time>2014-06-23T12:07:53Z</time>
      </trkpt>
      <trkpt lat="59.9788856" lon="17.7393282">
        <ele>36.6675</ele>
        <time>2014-06-23T12:07:54Z</time>
      </trkpt>
      <trkpt lat="59.9788987" lon="17.7393476">
        <ele>37.1481</ele>
        <time>2014-06-23T12:07:55Z</time>
      </trkpt>
      <trkpt lat="59.9789065" lon="17.7393724">
        <ele>36.6675</ele>
        <time>2014-06-23T12:07:56Z</time>
      </trkpt>
      <trkpt lat="59.9789138" lon="17.7394029">
        <ele>36.6675</ele>
        <time>2014-06-23T12:07:57Z</time>
      </trkpt>
      <trkpt lat="59.9789086" lon="17.7394285">
        <ele>36.6675</ele>
        <time>2014-06-23T12:07:58Z</time>
      </trkpt>
      <trkpt lat="59.9789029" lon="17.7394503">
        <ele>37.1481</ele>
        <time>2014-06-23T12:07:59Z</time>
      </trkpt>
      <trkpt lat="59.9788967" lon="17.7394841">
        <ele>37.6287</ele>
        <time>2014-06-23T12:08:00Z</time>
      </trkpt>
      <trkpt lat="59.978892" lon="17.7395186">
        <ele>37.6287</ele>
        <time>2014-06-23T12:08:01Z</time>
      </trkpt>
      <trkpt lat="59.9788887" lon="17.7395491">
        <ele>37.6287</ele>
        <time>2014-06-23T12:08:02Z</time>
      </trkpt>
      <trkpt lat="59.9788859" lon="17.7395739">
        <ele>38.1094</ele>
        <time>2014-06-23T12:08:03Z</time>
      </trkpt>
      <trkpt lat="59.9788744" lon="17.7395983">
        <ele>38.1094</ele>
        <time>2014-06-23T12:08:04Z</time>
      </trkpt>
      <trkpt lat="59.9788571" lon="17.7396193">
        <ele>38.1094</ele>
        <time>2014-06-23T12:08:05Z</time>
      </trkpt>
      <trkpt lat="59.9788433" lon="17.7396362">
        <ele>38.5901</ele>
        <time>2014-06-23T12:08:06Z</time>
      </trkpt>
      <trkpt lat="59.9788361" lon="17.7396511">
        <ele>38.5901</ele>
        <time>2014-06-23T12:08:07Z</time>
      </trkpt>
      <trkpt lat="59.9788286" lon="17.7396659">
        <ele>38.5901</ele>
        <time>2014-06-23T12:08:08Z</time>
      </trkpt>
      <trkpt lat="59.9788233" lon="17.7396831">
        <ele>39.0707</ele>
        <time>2014-06-23T12:08:09Z</time>
      </trkpt>
      <trkpt lat="59.9788159" lon="17.7397014">
        <ele>39.0707</ele>
        <time>2014-06-23T12:08:10Z</time>
      </trkpt>
      <trkpt lat="59.9788098" lon="17.7397229">
        <ele>39.5513</ele>
        <time>2014-06-23T12:08:11Z</time>
      </trkpt>
      <trkpt lat="59.9788076" lon="17.7397488">
        <ele>40.0321</ele>
        <time>2014-06-23T12:08:12Z</time>
      </trkpt>
      <trkpt lat="59.9788033" lon="17.7397754">
        <ele>39.0707</ele>
        <time>2014-06-23T12:08:13Z</time>
      </trkpt>
      <trkpt lat="59.9788029" lon="17.7397989">
        <ele>39.0707</ele>
        <time>2014-06-23T12:08:14Z</time>
      </trkpt>
      <trkpt lat="59.9788027" lon="17.7398216">
        <ele>38.5901</ele>
        <time>2014-06-23T12:08:15Z</time>
      </trkpt>
      <trkpt lat="59.9788061" lon="17.7398408">
        <ele>39.0707</ele>
        <time>2014-06-23T12:08:16Z</time>
      </trkpt>
      <trkpt lat="59.9788074" lon="17.7398633">
        <ele>39.0707</ele>
        <time>2014-06-23T12:08:17Z</time>
      </trkpt>
      <trkpt lat="59.9788131" lon="17.7398851">
        <ele>39.5513</ele>
        <time>2014-06-23T12:08:18Z</time>
      </trkpt>
      <trkpt lat="59.9788169" lon="17.7399047">
        <ele>39.5513</ele>
        <time>2014-06-23T12:08:19Z</time>
      </trkpt>
      <trkpt lat="59.9788201" lon="17.7399179">
        <ele>39.5513</ele>
        <time>2014-06-23T12:08:20Z</time>
      </trkpt>
    </trkseg>
  </trk>
</gpx>